<?xml version="1.0" encoding="UTF-8" standalone="no" ?>
<gpx xmlns="http://www.topografix.com/GPX/1/1" xmlns:xsi="http://www.w3.org/2001/XMLSchema-instance" xsi:schemaLocation="http://www.topografix.com/GPX/1/1 http://www.topografix.com/GPX/1/1/gpx.xsd" version="1.1" creator="VisuGPX - https://www.visugpx.com">
  <metadata>
    <name>Ampiac - Capelle</name>
    <desc><![CDATA[changement de pré]]></desc>
  </metadata>
  <trk>
    <name><![CDATA[14 avr. 2013 12:36:22]]></name>
    <cmt><![CDATA[14 avr. 2013 12:36:22]]></cmt>
    <trkseg>
      <trkpt lat="44.3472" lon="2.48952">
        <ele>591</ele>
        <time>2013-04-14T10:36:23Z</time>
      </trkpt>
      <trkpt lat="44.34727" lon="2.48938">
        <ele>591</ele>
        <time>2013-04-14T10:36:33Z</time>
      </trkpt>
      <trkpt lat="44.34735" lon="2.48918">
        <ele>590</ele>
        <time>2013-04-14T10:36:45Z</time>
      </trkpt>
      <trkpt lat="44.34741" lon="2.48907">
        <ele>589</ele>
        <time>2013-04-14T10:36:51Z</time>
      </trkpt>
      <trkpt lat="44.34746" lon="2.48896">
        <ele>589</ele>
        <time>2013-04-14T10:37:02Z</time>
      </trkpt>
      <trkpt lat="44.34752" lon="2.48885">
        <ele>589</ele>
        <time>2013-04-14T10:37:09Z</time>
      </trkpt>
      <trkpt lat="44.34759" lon="2.48877">
        <ele>590</ele>
        <time>2013-04-14T10:37:15Z</time>
      </trkpt>
      <trkpt lat="44.34763" lon="2.48872">
        <ele>591</ele>
        <time>2013-04-14T10:37:19Z</time>
      </trkpt>
      <trkpt lat="44.34772" lon="2.48867">
        <ele>593</ele>
        <time>2013-04-14T10:37:25Z</time>
      </trkpt>
      <trkpt lat="44.34775" lon="2.48862">
        <ele>594</ele>
        <time>2013-04-14T10:37:29Z</time>
      </trkpt>
      <trkpt lat="44.3478" lon="2.48858">
        <ele>596</ele>
        <time>2013-04-14T10:37:33Z</time>
      </trkpt>
      <trkpt lat="44.34788" lon="2.48851">
        <ele>597</ele>
        <time>2013-04-14T10:37:40Z</time>
      </trkpt>
      <trkpt lat="44.34796" lon="2.48843">
        <ele>598</ele>
        <time>2013-04-14T10:37:47Z</time>
      </trkpt>
      <trkpt lat="44.34803" lon="2.48835">
        <ele>601</ele>
        <time>2013-04-14T10:37:54Z</time>
      </trkpt>
      <trkpt lat="44.34807" lon="2.48832">
        <ele>603</ele>
        <time>2013-04-14T10:37:57Z</time>
      </trkpt>
      <trkpt lat="44.34811" lon="2.48826">
        <ele>605</ele>
        <time>2013-04-14T10:38:01Z</time>
      </trkpt>
      <trkpt lat="44.34816" lon="2.48821">
        <ele>607</ele>
        <time>2013-04-14T10:38:05Z</time>
      </trkpt>
      <trkpt lat="44.3482" lon="2.48817">
        <ele>608</ele>
        <time>2013-04-14T10:38:09Z</time>
      </trkpt>
      <trkpt lat="44.34825" lon="2.48813">
        <ele>610</ele>
        <time>2013-04-14T10:38:13Z</time>
      </trkpt>
      <trkpt lat="44.3483" lon="2.48809">
        <ele>611</ele>
        <time>2013-04-14T10:38:17Z</time>
      </trkpt>
      <trkpt lat="44.34835" lon="2.48808">
        <ele>612</ele>
        <time>2013-04-14T10:38:21Z</time>
      </trkpt>
      <trkpt lat="44.34845" lon="2.48805">
        <ele>610</ele>
        <time>2013-04-14T10:38:28Z</time>
      </trkpt>
      <trkpt lat="44.34855" lon="2.48803">
        <ele>608</ele>
        <time>2013-04-14T10:38:35Z</time>
      </trkpt>
      <trkpt lat="44.34865" lon="2.48802">
        <ele>607</ele>
        <time>2013-04-14T10:38:42Z</time>
      </trkpt>
      <trkpt lat="44.34874" lon="2.48795">
        <ele>606</ele>
        <time>2013-04-14T10:38:50Z</time>
      </trkpt>
      <trkpt lat="44.34879" lon="2.48784">
        <ele>604</ele>
        <time>2013-04-14T10:38:58Z</time>
      </trkpt>
      <trkpt lat="44.34879" lon="2.4877">
        <ele>604</ele>
        <time>2013-04-14T10:39:05Z</time>
      </trkpt>
      <trkpt lat="44.34875" lon="2.48764">
        <ele>604</ele>
        <time>2013-04-14T10:39:09Z</time>
      </trkpt>
      <trkpt lat="44.3487" lon="2.4876">
        <ele>605</ele>
        <time>2013-04-14T10:39:14Z</time>
      </trkpt>
      <trkpt lat="44.34865" lon="2.48757">
        <ele>605</ele>
        <time>2013-04-14T10:39:18Z</time>
      </trkpt>
      <trkpt lat="44.34859" lon="2.48755">
        <ele>605</ele>
        <time>2013-04-14T10:39:22Z</time>
      </trkpt>
      <trkpt lat="44.34854" lon="2.48753">
        <ele>606</ele>
        <time>2013-04-14T10:39:26Z</time>
      </trkpt>
      <trkpt lat="44.3485" lon="2.48752">
        <ele>607</ele>
        <time>2013-04-14T10:39:30Z</time>
      </trkpt>
      <trkpt lat="44.34844" lon="2.48748">
        <ele>608</ele>
        <time>2013-04-14T10:39:35Z</time>
      </trkpt>
      <trkpt lat="44.34835" lon="2.48745">
        <ele>609</ele>
        <time>2013-04-14T10:39:41Z</time>
      </trkpt>
      <trkpt lat="44.3483" lon="2.48744">
        <ele>610</ele>
        <time>2013-04-14T10:39:45Z</time>
      </trkpt>
      <trkpt lat="44.34825" lon="2.48742">
        <ele>611</ele>
        <time>2013-04-14T10:39:49Z</time>
      </trkpt>
      <trkpt lat="44.34819" lon="2.4874">
        <ele>613</ele>
        <time>2013-04-14T10:39:53Z</time>
      </trkpt>
      <trkpt lat="44.34814" lon="2.48738">
        <ele>613</ele>
        <time>2013-04-14T10:39:57Z</time>
      </trkpt>
      <trkpt lat="44.34809" lon="2.48736">
        <ele>614</ele>
        <time>2013-04-14T10:40:01Z</time>
      </trkpt>
      <trkpt lat="44.34803" lon="2.48733">
        <ele>614</ele>
        <time>2013-04-14T10:40:06Z</time>
      </trkpt>
      <trkpt lat="44.34798" lon="2.48732">
        <ele>614</ele>
        <time>2013-04-14T10:40:09Z</time>
      </trkpt>
      <trkpt lat="44.34793" lon="2.48731">
        <ele>614</ele>
        <time>2013-04-14T10:40:13Z</time>
      </trkpt>
      <trkpt lat="44.34788" lon="2.4873">
        <ele>614</ele>
        <time>2013-04-14T10:40:17Z</time>
      </trkpt>
      <trkpt lat="44.34782" lon="2.48729">
        <ele>615</ele>
        <time>2013-04-14T10:40:21Z</time>
      </trkpt>
      <trkpt lat="44.34777" lon="2.48727">
        <ele>616</ele>
        <time>2013-04-14T10:40:25Z</time>
      </trkpt>
      <trkpt lat="44.34769" lon="2.48724">
        <ele>618</ele>
        <time>2013-04-14T10:40:32Z</time>
      </trkpt>
      <trkpt lat="44.34761" lon="2.48719">
        <ele>619</ele>
        <time>2013-04-14T10:40:38Z</time>
      </trkpt>
      <trkpt lat="44.34756" lon="2.48717">
        <ele>619</ele>
        <time>2013-04-14T10:40:41Z</time>
      </trkpt>
      <trkpt lat="44.3475" lon="2.48714">
        <ele>619</ele>
        <time>2013-04-14T10:40:45Z</time>
      </trkpt>
      <trkpt lat="44.34745" lon="2.48712">
        <ele>618</ele>
        <time>2013-04-14T10:40:49Z</time>
      </trkpt>
      <trkpt lat="44.3474" lon="2.4871">
        <ele>618</ele>
        <time>2013-04-14T10:40:52Z</time>
      </trkpt>
      <trkpt lat="44.34735" lon="2.48709">
        <ele>618</ele>
        <time>2013-04-14T10:40:56Z</time>
      </trkpt>
      <trkpt lat="44.34731" lon="2.48708">
        <ele>619</ele>
        <time>2013-04-14T10:41:01Z</time>
      </trkpt>
      <trkpt lat="44.34725" lon="2.4871">
        <ele>620</ele>
        <time>2013-04-14T10:41:05Z</time>
      </trkpt>
      <trkpt lat="44.3472" lon="2.48711">
        <ele>620</ele>
        <time>2013-04-14T10:41:09Z</time>
      </trkpt>
      <trkpt lat="44.34715" lon="2.48707">
        <ele>621</ele>
        <time>2013-04-14T10:41:12Z</time>
      </trkpt>
      <trkpt lat="44.3472" lon="2.48696">
        <ele>620</ele>
        <time>2013-04-14T10:41:17Z</time>
      </trkpt>
      <trkpt lat="44.34729" lon="2.48692">
        <ele>619</ele>
        <time>2013-04-14T10:41:23Z</time>
      </trkpt>
      <trkpt lat="44.34738" lon="2.48689">
        <ele>617</ele>
        <time>2013-04-14T10:41:30Z</time>
      </trkpt>
      <trkpt lat="44.34744" lon="2.48687">
        <ele>617</ele>
        <time>2013-04-14T10:41:34Z</time>
      </trkpt>
      <trkpt lat="44.34746" lon="2.48686">
        <ele>617</ele>
        <time>2013-04-14T10:41:41Z</time>
      </trkpt>
      <trkpt lat="44.34749" lon="2.48683">
        <ele>622</ele>
        <time>2013-04-14T10:46:19Z</time>
      </trkpt>
      <trkpt lat="44.3476" lon="2.48683">
        <ele>622</ele>
        <time>2013-04-14T10:48:10Z</time>
      </trkpt>
      <trkpt lat="44.34769" lon="2.48685">
        <ele>621</ele>
        <time>2013-04-14T10:48:17Z</time>
      </trkpt>
      <trkpt lat="44.34779" lon="2.48686">
        <ele>622</ele>
        <time>2013-04-14T10:48:25Z</time>
      </trkpt>
      <trkpt lat="44.34785" lon="2.48687">
        <ele>622</ele>
        <time>2013-04-14T10:48:29Z</time>
      </trkpt>
      <trkpt lat="44.34795" lon="2.48688">
        <ele>623</ele>
        <time>2013-04-14T10:48:36Z</time>
      </trkpt>
      <trkpt lat="44.34805" lon="2.48688">
        <ele>624</ele>
        <time>2013-04-14T10:48:43Z</time>
      </trkpt>
      <trkpt lat="44.34814" lon="2.48687">
        <ele>625</ele>
        <time>2013-04-14T10:48:50Z</time>
      </trkpt>
      <trkpt lat="44.34819" lon="2.48686">
        <ele>627</ele>
        <time>2013-04-14T10:48:54Z</time>
      </trkpt>
      <trkpt lat="44.34823" lon="2.48684">
        <ele>628</ele>
        <time>2013-04-14T10:48:57Z</time>
      </trkpt>
      <trkpt lat="44.34829" lon="2.48681">
        <ele>630</ele>
        <time>2013-04-14T10:49:02Z</time>
      </trkpt>
      <trkpt lat="44.34835" lon="2.48679">
        <ele>631</ele>
        <time>2013-04-14T10:49:06Z</time>
      </trkpt>
      <trkpt lat="44.34845" lon="2.4868">
        <ele>633</ele>
        <time>2013-04-14T10:49:14Z</time>
      </trkpt>
      <trkpt lat="44.3485" lon="2.48678">
        <ele>634</ele>
        <time>2013-04-14T10:49:18Z</time>
      </trkpt>
      <trkpt lat="44.3486" lon="2.48674">
        <ele>635</ele>
        <time>2013-04-14T10:49:25Z</time>
      </trkpt>
      <trkpt lat="44.34868" lon="2.48667">
        <ele>635</ele>
        <time>2013-04-14T10:49:33Z</time>
      </trkpt>
      <trkpt lat="44.34872" lon="2.48663">
        <ele>636</ele>
        <time>2013-04-14T10:49:37Z</time>
      </trkpt>
      <trkpt lat="44.34877" lon="2.48659">
        <ele>636</ele>
        <time>2013-04-14T10:49:41Z</time>
      </trkpt>
      <trkpt lat="44.34882" lon="2.48654">
        <ele>638</ele>
        <time>2013-04-14T10:49:45Z</time>
      </trkpt>
      <trkpt lat="44.34886" lon="2.48651">
        <ele>639</ele>
        <time>2013-04-14T10:49:49Z</time>
      </trkpt>
      <trkpt lat="44.34891" lon="2.48648">
        <ele>639</ele>
        <time>2013-04-14T10:49:53Z</time>
      </trkpt>
      <trkpt lat="44.34896" lon="2.48645">
        <ele>639</ele>
        <time>2013-04-14T10:49:57Z</time>
      </trkpt>
      <trkpt lat="44.34901" lon="2.48642">
        <ele>639</ele>
        <time>2013-04-14T10:50:01Z</time>
      </trkpt>
      <trkpt lat="44.34909" lon="2.48638">
        <ele>638</ele>
        <time>2013-04-14T10:50:08Z</time>
      </trkpt>
      <trkpt lat="44.34913" lon="2.48635">
        <ele>638</ele>
        <time>2013-04-14T10:50:11Z</time>
      </trkpt>
      <trkpt lat="44.34918" lon="2.48632">
        <ele>638</ele>
        <time>2013-04-14T10:50:15Z</time>
      </trkpt>
      <trkpt lat="44.34923" lon="2.48629">
        <ele>637</ele>
        <time>2013-04-14T10:50:19Z</time>
      </trkpt>
      <trkpt lat="44.34928" lon="2.48625">
        <ele>637</ele>
        <time>2013-04-14T10:50:23Z</time>
      </trkpt>
      <trkpt lat="44.34932" lon="2.48622">
        <ele>636</ele>
        <time>2013-04-14T10:50:27Z</time>
      </trkpt>
      <trkpt lat="44.34941" lon="2.48617">
        <ele>637</ele>
        <time>2013-04-14T10:50:34Z</time>
      </trkpt>
      <trkpt lat="44.34946" lon="2.48614">
        <ele>637</ele>
        <time>2013-04-14T10:50:38Z</time>
      </trkpt>
      <trkpt lat="44.34949" lon="2.48613">
        <ele>637</ele>
        <time>2013-04-14T10:50:46Z</time>
      </trkpt>
      <trkpt lat="44.3495" lon="2.48609">
        <ele>637</ele>
        <time>2013-04-14T10:51:36Z</time>
      </trkpt>
      <trkpt lat="44.34954" lon="2.48607">
        <ele>638</ele>
        <time>2013-04-14T10:51:39Z</time>
      </trkpt>
      <trkpt lat="44.3496" lon="2.48606">
        <ele>638</ele>
        <time>2013-04-14T10:51:43Z</time>
      </trkpt>
      <trkpt lat="44.34968" lon="2.48601">
        <ele>638</ele>
        <time>2013-04-14T10:51:49Z</time>
      </trkpt>
      <trkpt lat="44.34972" lon="2.48598">
        <ele>638</ele>
        <time>2013-04-14T10:51:53Z</time>
      </trkpt>
      <trkpt lat="44.34977" lon="2.48596">
        <ele>638</ele>
        <time>2013-04-14T10:51:57Z</time>
      </trkpt>
      <trkpt lat="44.34986" lon="2.48591">
        <ele>639</ele>
        <time>2013-04-14T10:52:05Z</time>
      </trkpt>
      <trkpt lat="44.34993" lon="2.48588">
        <ele>639</ele>
        <time>2013-04-14T10:52:11Z</time>
      </trkpt>
      <trkpt lat="44.35002" lon="2.48584">
        <ele>639</ele>
        <time>2013-04-14T10:52:19Z</time>
      </trkpt>
      <trkpt lat="44.3501" lon="2.48577">
        <ele>640</ele>
        <time>2013-04-14T10:52:26Z</time>
      </trkpt>
      <trkpt lat="44.35018" lon="2.48571">
        <ele>642</ele>
        <time>2013-04-14T10:52:33Z</time>
      </trkpt>
      <trkpt lat="44.35028" lon="2.48567">
        <ele>643</ele>
        <time>2013-04-14T10:52:40Z</time>
      </trkpt>
      <trkpt lat="44.35036" lon="2.48562">
        <ele>644</ele>
        <time>2013-04-14T10:52:47Z</time>
      </trkpt>
      <trkpt lat="44.35044" lon="2.48557">
        <ele>645</ele>
        <time>2013-04-14T10:52:55Z</time>
      </trkpt>
      <trkpt lat="44.35053" lon="2.48552">
        <ele>645</ele>
        <time>2013-04-14T10:53:01Z</time>
      </trkpt>
      <trkpt lat="44.35062" lon="2.48548">
        <ele>645</ele>
        <time>2013-04-14T10:53:08Z</time>
      </trkpt>
      <trkpt lat="44.35071" lon="2.48542">
        <ele>646</ele>
        <time>2013-04-14T10:53:15Z</time>
      </trkpt>
      <trkpt lat="44.35079" lon="2.48538">
        <ele>646</ele>
        <time>2013-04-14T10:53:22Z</time>
      </trkpt>
      <trkpt lat="44.35085" lon="2.48535">
        <ele>646</ele>
        <time>2013-04-14T10:53:28Z</time>
      </trkpt>
      <trkpt lat="44.35087" lon="2.48528">
        <ele>653</ele>
        <time>2013-04-14T10:53:51Z</time>
      </trkpt>
      <trkpt lat="44.35092" lon="2.48523">
        <ele>653</ele>
        <time>2013-04-14T10:53:54Z</time>
      </trkpt>
      <trkpt lat="44.35099" lon="2.48517">
        <ele>655</ele>
        <time>2013-04-14T10:54:00Z</time>
      </trkpt>
      <trkpt lat="44.35104" lon="2.48515">
        <ele>655</ele>
        <time>2013-04-14T10:54:04Z</time>
      </trkpt>
      <trkpt lat="44.35109" lon="2.48511">
        <ele>655</ele>
        <time>2013-04-14T10:54:09Z</time>
      </trkpt>
      <trkpt lat="44.35114" lon="2.4851">
        <ele>655</ele>
        <time>2013-04-14T10:54:12Z</time>
      </trkpt>
      <trkpt lat="44.35119" lon="2.48506">
        <ele>656</ele>
        <time>2013-04-14T10:54:17Z</time>
      </trkpt>
      <trkpt lat="44.35127" lon="2.48502">
        <ele>658</ele>
        <time>2013-04-14T10:54:23Z</time>
      </trkpt>
      <trkpt lat="44.35134" lon="2.48501">
        <ele>658</ele>
        <time>2013-04-14T10:54:31Z</time>
      </trkpt>
      <trkpt lat="44.35137" lon="2.48493">
        <ele>658</ele>
        <time>2013-04-14T10:54:37Z</time>
      </trkpt>
      <trkpt lat="44.35137" lon="2.48486">
        <ele>657</ele>
        <time>2013-04-14T10:54:42Z</time>
      </trkpt>
      <trkpt lat="44.35142" lon="2.4848">
        <ele>650</ele>
        <time>2013-04-14T10:55:32Z</time>
      </trkpt>
      <trkpt lat="44.35143" lon="2.48485">
        <ele>654</ele>
        <time>2013-04-14T11:00:03Z</time>
      </trkpt>
      <trkpt lat="44.3514" lon="2.48491">
        <ele>654</ele>
        <time>2013-04-14T11:00:06Z</time>
      </trkpt>
      <trkpt lat="44.35138" lon="2.48497">
        <ele>654</ele>
        <time>2013-04-14T11:00:09Z</time>
      </trkpt>
      <trkpt lat="44.35134" lon="2.48502">
        <ele>653</ele>
        <time>2013-04-14T11:00:14Z</time>
      </trkpt>
      <trkpt lat="44.35135" lon="2.48509">
        <ele>653</ele>
        <time>2013-04-14T11:00:18Z</time>
      </trkpt>
      <trkpt lat="44.35136" lon="2.48519">
        <ele>654</ele>
        <time>2013-04-14T11:00:22Z</time>
      </trkpt>
      <trkpt lat="44.35138" lon="2.48526">
        <ele>654</ele>
        <time>2013-04-14T11:00:25Z</time>
      </trkpt>
      <trkpt lat="44.3514" lon="2.48534">
        <ele>653</ele>
        <time>2013-04-14T11:00:28Z</time>
      </trkpt>
      <trkpt lat="44.35142" lon="2.48543">
        <ele>654</ele>
        <time>2013-04-14T11:00:31Z</time>
      </trkpt>
      <trkpt lat="44.35144" lon="2.48551">
        <ele>653</ele>
        <time>2013-04-14T11:00:33Z</time>
      </trkpt>
      <trkpt lat="44.35145" lon="2.48559">
        <ele>653</ele>
        <time>2013-04-14T11:00:35Z</time>
      </trkpt>
      <trkpt lat="44.35146" lon="2.48568">
        <ele>653</ele>
        <time>2013-04-14T11:00:37Z</time>
      </trkpt>
      <trkpt lat="44.35147" lon="2.48576">
        <ele>653</ele>
        <time>2013-04-14T11:00:39Z</time>
      </trkpt>
      <trkpt lat="44.35149" lon="2.48583">
        <ele>653</ele>
        <time>2013-04-14T11:00:41Z</time>
      </trkpt>
      <trkpt lat="44.35151" lon="2.48591">
        <ele>653</ele>
        <time>2013-04-14T11:00:43Z</time>
      </trkpt>
      <trkpt lat="44.35153" lon="2.48599">
        <ele>653</ele>
        <time>2013-04-14T11:00:45Z</time>
      </trkpt>
      <trkpt lat="44.35154" lon="2.48606">
        <ele>653</ele>
        <time>2013-04-14T11:00:47Z</time>
      </trkpt>
      <trkpt lat="44.35156" lon="2.48614">
        <ele>653</ele>
        <time>2013-04-14T11:00:49Z</time>
      </trkpt>
      <trkpt lat="44.35157" lon="2.48622">
        <ele>653</ele>
        <time>2013-04-14T11:00:51Z</time>
      </trkpt>
      <trkpt lat="44.35159" lon="2.4863">
        <ele>653</ele>
        <time>2013-04-14T11:00:53Z</time>
      </trkpt>
      <trkpt lat="44.35161" lon="2.48637">
        <ele>653</ele>
        <time>2013-04-14T11:00:55Z</time>
      </trkpt>
      <trkpt lat="44.35163" lon="2.48644">
        <ele>652</ele>
        <time>2013-04-14T11:00:57Z</time>
      </trkpt>
      <trkpt lat="44.35165" lon="2.48653">
        <ele>652</ele>
        <time>2013-04-14T11:00:59Z</time>
      </trkpt>
      <trkpt lat="44.35167" lon="2.4866">
        <ele>652</ele>
        <time>2013-04-14T11:01:01Z</time>
      </trkpt>
      <trkpt lat="44.3517" lon="2.48675">
        <ele>651</ele>
        <time>2013-04-14T11:01:05Z</time>
      </trkpt>
      <trkpt lat="44.35171" lon="2.48683">
        <ele>651</ele>
        <time>2013-04-14T11:01:07Z</time>
      </trkpt>
      <trkpt lat="44.35173" lon="2.4869">
        <ele>650</ele>
        <time>2013-04-14T11:01:09Z</time>
      </trkpt>
      <trkpt lat="44.35174" lon="2.48698">
        <ele>650</ele>
        <time>2013-04-14T11:01:11Z</time>
      </trkpt>
      <trkpt lat="44.35176" lon="2.48707">
        <ele>650</ele>
        <time>2013-04-14T11:01:13Z</time>
      </trkpt>
      <trkpt lat="44.35177" lon="2.48714">
        <ele>649</ele>
        <time>2013-04-14T11:01:15Z</time>
      </trkpt>
      <trkpt lat="44.35179" lon="2.48724">
        <ele>650</ele>
        <time>2013-04-14T11:01:18Z</time>
      </trkpt>
      <trkpt lat="44.35181" lon="2.4873">
        <ele>651</ele>
        <time>2013-04-14T11:01:20Z</time>
      </trkpt>
      <trkpt lat="44.35185" lon="2.48743">
        <ele>652</ele>
        <time>2013-04-14T11:01:24Z</time>
      </trkpt>
      <trkpt lat="44.35188" lon="2.48758">
        <ele>652</ele>
        <time>2013-04-14T11:01:28Z</time>
      </trkpt>
      <trkpt lat="44.35191" lon="2.48769">
        <ele>652</ele>
        <time>2013-04-14T11:01:31Z</time>
      </trkpt>
      <trkpt lat="44.35192" lon="2.48777">
        <ele>652</ele>
        <time>2013-04-14T11:01:33Z</time>
      </trkpt>
      <trkpt lat="44.35194" lon="2.48785">
        <ele>651</ele>
        <time>2013-04-14T11:01:35Z</time>
      </trkpt>
      <trkpt lat="44.35195" lon="2.48793">
        <ele>651</ele>
        <time>2013-04-14T11:01:37Z</time>
      </trkpt>
      <trkpt lat="44.35196" lon="2.48801">
        <ele>651</ele>
        <time>2013-04-14T11:01:39Z</time>
      </trkpt>
      <trkpt lat="44.35198" lon="2.48807">
        <ele>651</ele>
        <time>2013-04-14T11:01:41Z</time>
      </trkpt>
      <trkpt lat="44.352" lon="2.48814">
        <ele>650</ele>
        <time>2013-04-14T11:01:44Z</time>
      </trkpt>
      <trkpt lat="44.35201" lon="2.48821">
        <ele>648</ele>
        <time>2013-04-14T11:01:47Z</time>
      </trkpt>
      <trkpt lat="44.35203" lon="2.48829">
        <ele>647</ele>
        <time>2013-04-14T11:01:50Z</time>
      </trkpt>
      <trkpt lat="44.35203" lon="2.48836">
        <ele>647</ele>
        <time>2013-04-14T11:01:52Z</time>
      </trkpt>
      <trkpt lat="44.35203" lon="2.48843">
        <ele>646</ele>
        <time>2013-04-14T11:01:54Z</time>
      </trkpt>
      <trkpt lat="44.35204" lon="2.48851">
        <ele>646</ele>
        <time>2013-04-14T11:01:56Z</time>
      </trkpt>
      <trkpt lat="44.35204" lon="2.48861">
        <ele>646</ele>
        <time>2013-04-14T11:01:58Z</time>
      </trkpt>
      <trkpt lat="44.35204" lon="2.48869">
        <ele>646</ele>
        <time>2013-04-14T11:02:00Z</time>
      </trkpt>
      <trkpt lat="44.35204" lon="2.48878">
        <ele>646</ele>
        <time>2013-04-14T11:02:02Z</time>
      </trkpt>
      <trkpt lat="44.35204" lon="2.48886">
        <ele>646</ele>
        <time>2013-04-14T11:02:04Z</time>
      </trkpt>
      <trkpt lat="44.35204" lon="2.48893">
        <ele>646</ele>
        <time>2013-04-14T11:02:06Z</time>
      </trkpt>
      <trkpt lat="44.35204" lon="2.48902">
        <ele>646</ele>
        <time>2013-04-14T11:02:08Z</time>
      </trkpt>
      <trkpt lat="44.35204" lon="2.4891">
        <ele>646</ele>
        <time>2013-04-14T11:02:10Z</time>
      </trkpt>
      <trkpt lat="44.35204" lon="2.48919">
        <ele>645</ele>
        <time>2013-04-14T11:02:12Z</time>
      </trkpt>
      <trkpt lat="44.35203" lon="2.48929">
        <ele>645</ele>
        <time>2013-04-14T11:02:15Z</time>
      </trkpt>
      <trkpt lat="44.35203" lon="2.4894">
        <ele>645</ele>
        <time>2013-04-14T11:02:18Z</time>
      </trkpt>
      <trkpt lat="44.35203" lon="2.48949">
        <ele>645</ele>
        <time>2013-04-14T11:02:20Z</time>
      </trkpt>
      <trkpt lat="44.35203" lon="2.48956">
        <ele>645</ele>
        <time>2013-04-14T11:02:22Z</time>
      </trkpt>
      <trkpt lat="44.35203" lon="2.48965">
        <ele>644</ele>
        <time>2013-04-14T11:02:24Z</time>
      </trkpt>
      <trkpt lat="44.35203" lon="2.48972">
        <ele>645</ele>
        <time>2013-04-14T11:02:26Z</time>
      </trkpt>
      <trkpt lat="44.35203" lon="2.4898">
        <ele>645</ele>
        <time>2013-04-14T11:02:28Z</time>
      </trkpt>
      <trkpt lat="44.35203" lon="2.48988">
        <ele>645</ele>
        <time>2013-04-14T11:02:30Z</time>
      </trkpt>
      <trkpt lat="44.35203" lon="2.48996">
        <ele>644</ele>
        <time>2013-04-14T11:02:32Z</time>
      </trkpt>
      <trkpt lat="44.35203" lon="2.49003">
        <ele>644</ele>
        <time>2013-04-14T11:02:34Z</time>
      </trkpt>
      <trkpt lat="44.35203" lon="2.49011">
        <ele>645</ele>
        <time>2013-04-14T11:02:36Z</time>
      </trkpt>
      <trkpt lat="44.35203" lon="2.49019">
        <ele>644</ele>
        <time>2013-04-14T11:02:38Z</time>
      </trkpt>
      <trkpt lat="44.35203" lon="2.49027">
        <ele>644</ele>
        <time>2013-04-14T11:02:40Z</time>
      </trkpt>
      <trkpt lat="44.35203" lon="2.49034">
        <ele>644</ele>
        <time>2013-04-14T11:02:42Z</time>
      </trkpt>
      <trkpt lat="44.35203" lon="2.49042">
        <ele>644</ele>
        <time>2013-04-14T11:02:44Z</time>
      </trkpt>
      <trkpt lat="44.35203" lon="2.49049">
        <ele>644</ele>
        <time>2013-04-14T11:02:46Z</time>
      </trkpt>
      <trkpt lat="44.35203" lon="2.49056">
        <ele>644</ele>
        <time>2013-04-14T11:02:48Z</time>
      </trkpt>
      <trkpt lat="44.35203" lon="2.49063">
        <ele>644</ele>
        <time>2013-04-14T11:02:50Z</time>
      </trkpt>
      <trkpt lat="44.35203" lon="2.49071">
        <ele>644</ele>
        <time>2013-04-14T11:02:52Z</time>
      </trkpt>
      <trkpt lat="44.35203" lon="2.49079">
        <ele>644</ele>
        <time>2013-04-14T11:02:54Z</time>
      </trkpt>
      <trkpt lat="44.35203" lon="2.49087">
        <ele>644</ele>
        <time>2013-04-14T11:02:56Z</time>
      </trkpt>
      <trkpt lat="44.35203" lon="2.49095">
        <ele>644</ele>
        <time>2013-04-14T11:02:58Z</time>
      </trkpt>
      <trkpt lat="44.35203" lon="2.49102">
        <ele>644</ele>
        <time>2013-04-14T11:03:00Z</time>
      </trkpt>
      <trkpt lat="44.35203" lon="2.49109">
        <ele>644</ele>
        <time>2013-04-14T11:03:02Z</time>
      </trkpt>
      <trkpt lat="44.35204" lon="2.49116">
        <ele>644</ele>
        <time>2013-04-14T11:03:04Z</time>
      </trkpt>
      <trkpt lat="44.35204" lon="2.49123">
        <ele>644</ele>
        <time>2013-04-14T11:03:06Z</time>
      </trkpt>
      <trkpt lat="44.35204" lon="2.4913">
        <ele>644</ele>
        <time>2013-04-14T11:03:08Z</time>
      </trkpt>
      <trkpt lat="44.35204" lon="2.49137">
        <ele>644</ele>
        <time>2013-04-14T11:03:10Z</time>
      </trkpt>
      <trkpt lat="44.35205" lon="2.49145">
        <ele>643</ele>
        <time>2013-04-14T11:03:18Z</time>
      </trkpt>
      <trkpt lat="44.35206" lon="2.49153">
        <ele>643</ele>
        <time>2013-04-14T11:03:22Z</time>
      </trkpt>
      <trkpt lat="44.35209" lon="2.49158">
        <ele>643</ele>
        <time>2013-04-14T11:03:25Z</time>
      </trkpt>
      <trkpt lat="44.35212" lon="2.49164">
        <ele>644</ele>
        <time>2013-04-14T11:03:28Z</time>
      </trkpt>
      <trkpt lat="44.35216" lon="2.49169">
        <ele>644</ele>
        <time>2013-04-14T11:03:33Z</time>
      </trkpt>
      <trkpt lat="44.35222" lon="2.49168">
        <ele>644</ele>
        <time>2013-04-14T11:03:39Z</time>
      </trkpt>
      <trkpt lat="44.35229" lon="2.49164">
        <ele>644</ele>
        <time>2013-04-14T11:03:44Z</time>
      </trkpt>
      <trkpt lat="44.35234" lon="2.49161">
        <ele>645</ele>
        <time>2013-04-14T11:03:48Z</time>
      </trkpt>
      <trkpt lat="44.35239" lon="2.49159">
        <ele>646</ele>
        <time>2013-04-14T11:03:52Z</time>
      </trkpt>
      <trkpt lat="44.35244" lon="2.49157">
        <ele>647</ele>
        <time>2013-04-14T11:03:56Z</time>
      </trkpt>
      <trkpt lat="44.35249" lon="2.49156">
        <ele>646</ele>
        <time>2013-04-14T11:03:59Z</time>
      </trkpt>
      <trkpt lat="44.35254" lon="2.49154">
        <ele>647</ele>
        <time>2013-04-14T11:04:03Z</time>
      </trkpt>
      <trkpt lat="44.35259" lon="2.49151">
        <ele>647</ele>
        <time>2013-04-14T11:04:07Z</time>
      </trkpt>
      <trkpt lat="44.35264" lon="2.49147">
        <ele>647</ele>
        <time>2013-04-14T11:04:11Z</time>
      </trkpt>
      <trkpt lat="44.35269" lon="2.49146">
        <ele>647</ele>
        <time>2013-04-14T11:04:15Z</time>
      </trkpt>
      <trkpt lat="44.35274" lon="2.49144">
        <ele>647</ele>
        <time>2013-04-14T11:04:19Z</time>
      </trkpt>
      <trkpt lat="44.35279" lon="2.49142">
        <ele>647</ele>
        <time>2013-04-14T11:04:23Z</time>
      </trkpt>
      <trkpt lat="44.35285" lon="2.49139">
        <ele>647</ele>
        <time>2013-04-14T11:04:27Z</time>
      </trkpt>
      <trkpt lat="44.3529" lon="2.49135">
        <ele>647</ele>
        <time>2013-04-14T11:04:31Z</time>
      </trkpt>
      <trkpt lat="44.35295" lon="2.49132">
        <ele>647</ele>
        <time>2013-04-14T11:04:35Z</time>
      </trkpt>
      <trkpt lat="44.353" lon="2.49129">
        <ele>647</ele>
        <time>2013-04-14T11:04:39Z</time>
      </trkpt>
      <trkpt lat="44.35304" lon="2.49127">
        <ele>647</ele>
        <time>2013-04-14T11:04:43Z</time>
      </trkpt>
      <trkpt lat="44.35309" lon="2.49124">
        <ele>647</ele>
        <time>2013-04-14T11:04:47Z</time>
      </trkpt>
      <trkpt lat="44.35312" lon="2.4912">
        <ele>647</ele>
        <time>2013-04-14T11:04:50Z</time>
      </trkpt>
      <trkpt lat="44.35317" lon="2.49116">
        <ele>648</ele>
        <time>2013-04-14T11:04:53Z</time>
      </trkpt>
      <trkpt lat="44.35321" lon="2.49112">
        <ele>648</ele>
        <time>2013-04-14T11:04:57Z</time>
      </trkpt>
      <trkpt lat="44.35326" lon="2.49109">
        <ele>648</ele>
        <time>2013-04-14T11:05:01Z</time>
      </trkpt>
      <trkpt lat="44.3533" lon="2.49105">
        <ele>647</ele>
        <time>2013-04-14T11:05:05Z</time>
      </trkpt>
      <trkpt lat="44.35334" lon="2.49101">
        <ele>647</ele>
        <time>2013-04-14T11:05:09Z</time>
      </trkpt>
      <trkpt lat="44.35338" lon="2.49096">
        <ele>646</ele>
        <time>2013-04-14T11:05:14Z</time>
      </trkpt>
      <trkpt lat="44.35342" lon="2.49092">
        <ele>646</ele>
        <time>2013-04-14T11:05:18Z</time>
      </trkpt>
      <trkpt lat="44.35347" lon="2.49087">
        <ele>645</ele>
        <time>2013-04-14T11:05:22Z</time>
      </trkpt>
      <trkpt lat="44.35352" lon="2.49084">
        <ele>644</ele>
        <time>2013-04-14T11:05:26Z</time>
      </trkpt>
      <trkpt lat="44.35357" lon="2.4908">
        <ele>643</ele>
        <time>2013-04-14T11:05:29Z</time>
      </trkpt>
      <trkpt lat="44.35361" lon="2.49076">
        <ele>642</ele>
        <time>2013-04-14T11:05:33Z</time>
      </trkpt>
      <trkpt lat="44.35366" lon="2.4907">
        <ele>642</ele>
        <time>2013-04-14T11:05:37Z</time>
      </trkpt>
      <trkpt lat="44.3537" lon="2.49065">
        <ele>642</ele>
        <time>2013-04-14T11:05:41Z</time>
      </trkpt>
      <trkpt lat="44.35374" lon="2.49061">
        <ele>642</ele>
        <time>2013-04-14T11:05:44Z</time>
      </trkpt>
      <trkpt lat="44.35378" lon="2.49057">
        <ele>642</ele>
        <time>2013-04-14T11:05:48Z</time>
      </trkpt>
      <trkpt lat="44.35382" lon="2.49053">
        <ele>641</ele>
        <time>2013-04-14T11:05:52Z</time>
      </trkpt>
      <trkpt lat="44.35384" lon="2.49047">
        <ele>642</ele>
        <time>2013-04-14T11:05:56Z</time>
      </trkpt>
      <trkpt lat="44.35387" lon="2.49041">
        <ele>642</ele>
        <time>2013-04-14T11:06:00Z</time>
      </trkpt>
      <trkpt lat="44.3539" lon="2.49036">
        <ele>642</ele>
        <time>2013-04-14T11:06:03Z</time>
      </trkpt>
      <trkpt lat="44.35394" lon="2.4903">
        <ele>642</ele>
        <time>2013-04-14T11:06:06Z</time>
      </trkpt>
      <trkpt lat="44.35398" lon="2.49025">
        <ele>642</ele>
        <time>2013-04-14T11:06:10Z</time>
      </trkpt>
      <trkpt lat="44.35402" lon="2.49019">
        <ele>642</ele>
        <time>2013-04-14T11:06:14Z</time>
      </trkpt>
      <trkpt lat="44.35406" lon="2.49014">
        <ele>642</ele>
        <time>2013-04-14T11:06:18Z</time>
      </trkpt>
      <trkpt lat="44.35411" lon="2.49009">
        <ele>641</ele>
        <time>2013-04-14T11:06:22Z</time>
      </trkpt>
      <trkpt lat="44.35414" lon="2.49003">
        <ele>640</ele>
        <time>2013-04-14T11:06:26Z</time>
      </trkpt>
      <trkpt lat="44.35418" lon="2.48996">
        <ele>640</ele>
        <time>2013-04-14T11:06:31Z</time>
      </trkpt>
      <trkpt lat="44.35421" lon="2.48991">
        <ele>640</ele>
        <time>2013-04-14T11:06:33Z</time>
      </trkpt>
      <trkpt lat="44.35425" lon="2.48986">
        <ele>640</ele>
        <time>2013-04-14T11:06:36Z</time>
      </trkpt>
      <trkpt lat="44.35428" lon="2.4898">
        <ele>640</ele>
        <time>2013-04-14T11:06:40Z</time>
      </trkpt>
      <trkpt lat="44.35432" lon="2.48975">
        <ele>640</ele>
        <time>2013-04-14T11:06:44Z</time>
      </trkpt>
      <trkpt lat="44.35435" lon="2.4897">
        <ele>640</ele>
        <time>2013-04-14T11:06:48Z</time>
      </trkpt>
      <trkpt lat="44.35439" lon="2.48964">
        <ele>640</ele>
        <time>2013-04-14T11:06:52Z</time>
      </trkpt>
      <trkpt lat="44.35442" lon="2.48959">
        <ele>640</ele>
        <time>2013-04-14T11:06:55Z</time>
      </trkpt>
      <trkpt lat="44.35445" lon="2.48954">
        <ele>641</ele>
        <time>2013-04-14T11:06:59Z</time>
      </trkpt>
      <trkpt lat="44.35446" lon="2.48946">
        <ele>641</ele>
        <time>2013-04-14T11:07:03Z</time>
      </trkpt>
      <trkpt lat="44.35449" lon="2.48939">
        <ele>641</ele>
        <time>2013-04-14T11:07:07Z</time>
      </trkpt>
      <trkpt lat="44.35452" lon="2.48933">
        <ele>641</ele>
        <time>2013-04-14T11:07:10Z</time>
      </trkpt>
      <trkpt lat="44.35456" lon="2.48929">
        <ele>641</ele>
        <time>2013-04-14T11:07:13Z</time>
      </trkpt>
      <trkpt lat="44.35459" lon="2.48925">
        <ele>640</ele>
        <time>2013-04-14T11:07:17Z</time>
      </trkpt>
      <trkpt lat="44.35462" lon="2.48919">
        <ele>640</ele>
        <time>2013-04-14T11:07:20Z</time>
      </trkpt>
      <trkpt lat="44.35466" lon="2.48913">
        <ele>640</ele>
        <time>2013-04-14T11:07:24Z</time>
      </trkpt>
      <trkpt lat="44.35469" lon="2.48909">
        <ele>640</ele>
        <time>2013-04-14T11:07:27Z</time>
      </trkpt>
      <trkpt lat="44.35472" lon="2.48904">
        <ele>640</ele>
        <time>2013-04-14T11:07:30Z</time>
      </trkpt>
      <trkpt lat="44.35476" lon="2.489">
        <ele>640</ele>
        <time>2013-04-14T11:07:33Z</time>
      </trkpt>
      <trkpt lat="44.35481" lon="2.48897">
        <ele>639</ele>
        <time>2013-04-14T11:07:37Z</time>
      </trkpt>
      <trkpt lat="44.35487" lon="2.48893">
        <ele>639</ele>
        <time>2013-04-14T11:07:41Z</time>
      </trkpt>
      <trkpt lat="44.35491" lon="2.48888">
        <ele>639</ele>
        <time>2013-04-14T11:07:45Z</time>
      </trkpt>
      <trkpt lat="44.35496" lon="2.48884">
        <ele>639</ele>
        <time>2013-04-14T11:07:49Z</time>
      </trkpt>
      <trkpt lat="44.35501" lon="2.4888">
        <ele>639</ele>
        <time>2013-04-14T11:07:53Z</time>
      </trkpt>
      <trkpt lat="44.35506" lon="2.48875">
        <ele>638</ele>
        <time>2013-04-14T11:07:57Z</time>
      </trkpt>
      <trkpt lat="44.3551" lon="2.4887">
        <ele>638</ele>
        <time>2013-04-14T11:08:01Z</time>
      </trkpt>
      <trkpt lat="44.35515" lon="2.48865">
        <ele>638</ele>
        <time>2013-04-14T11:08:05Z</time>
      </trkpt>
      <trkpt lat="44.35519" lon="2.48862">
        <ele>638</ele>
        <time>2013-04-14T11:08:09Z</time>
      </trkpt>
      <trkpt lat="44.35523" lon="2.48857">
        <ele>638</ele>
        <time>2013-04-14T11:08:13Z</time>
      </trkpt>
      <trkpt lat="44.35526" lon="2.48852">
        <ele>638</ele>
        <time>2013-04-14T11:08:16Z</time>
      </trkpt>
      <trkpt lat="44.3553" lon="2.48847">
        <ele>638</ele>
        <time>2013-04-14T11:08:19Z</time>
      </trkpt>
      <trkpt lat="44.35534" lon="2.48842">
        <ele>638</ele>
        <time>2013-04-14T11:08:23Z</time>
      </trkpt>
      <trkpt lat="44.35538" lon="2.48838">
        <ele>637</ele>
        <time>2013-04-14T11:08:27Z</time>
      </trkpt>
      <trkpt lat="44.35542" lon="2.48833">
        <ele>637</ele>
        <time>2013-04-14T11:08:31Z</time>
      </trkpt>
      <trkpt lat="44.35546" lon="2.48827">
        <ele>636</ele>
        <time>2013-04-14T11:08:35Z</time>
      </trkpt>
      <trkpt lat="44.35549" lon="2.48823">
        <ele>636</ele>
        <time>2013-04-14T11:08:38Z</time>
      </trkpt>
      <trkpt lat="44.35555" lon="2.48815">
        <ele>635</ele>
        <time>2013-04-14T11:08:43Z</time>
      </trkpt>
      <trkpt lat="44.35559" lon="2.4881">
        <ele>635</ele>
        <time>2013-04-14T11:08:47Z</time>
      </trkpt>
      <trkpt lat="44.35564" lon="2.48806">
        <ele>635</ele>
        <time>2013-04-14T11:08:51Z</time>
      </trkpt>
      <trkpt lat="44.35568" lon="2.48801">
        <ele>635</ele>
        <time>2013-04-14T11:08:55Z</time>
      </trkpt>
      <trkpt lat="44.35575" lon="2.48794">
        <ele>635</ele>
        <time>2013-04-14T11:09:01Z</time>
      </trkpt>
      <trkpt lat="44.35579" lon="2.48788">
        <ele>635</ele>
        <time>2013-04-14T11:09:05Z</time>
      </trkpt>
      <trkpt lat="44.35582" lon="2.48783">
        <ele>636</ele>
        <time>2013-04-14T11:09:09Z</time>
      </trkpt>
      <trkpt lat="44.35586" lon="2.48777">
        <ele>637</ele>
        <time>2013-04-14T11:09:13Z</time>
      </trkpt>
      <trkpt lat="44.3559" lon="2.48772">
        <ele>637</ele>
        <time>2013-04-14T11:09:17Z</time>
      </trkpt>
      <trkpt lat="44.35593" lon="2.48766">
        <ele>637</ele>
        <time>2013-04-14T11:09:21Z</time>
      </trkpt>
      <trkpt lat="44.35596" lon="2.4876">
        <ele>637</ele>
        <time>2013-04-14T11:09:25Z</time>
      </trkpt>
      <trkpt lat="44.35599" lon="2.48753">
        <ele>637</ele>
        <time>2013-04-14T11:09:29Z</time>
      </trkpt>
      <trkpt lat="44.35602" lon="2.48747">
        <ele>637</ele>
        <time>2013-04-14T11:09:33Z</time>
      </trkpt>
      <trkpt lat="44.35605" lon="2.48741">
        <ele>637</ele>
        <time>2013-04-14T11:09:37Z</time>
      </trkpt>
      <trkpt lat="44.35607" lon="2.48735">
        <ele>637</ele>
        <time>2013-04-14T11:09:40Z</time>
      </trkpt>
      <trkpt lat="44.35609" lon="2.48729">
        <ele>637</ele>
        <time>2013-04-14T11:09:43Z</time>
      </trkpt>
      <trkpt lat="44.35612" lon="2.48724">
        <ele>637</ele>
        <time>2013-04-14T11:09:46Z</time>
      </trkpt>
      <trkpt lat="44.35615" lon="2.48717">
        <ele>637</ele>
        <time>2013-04-14T11:09:50Z</time>
      </trkpt>
      <trkpt lat="44.35619" lon="2.48711">
        <ele>637</ele>
        <time>2013-04-14T11:09:54Z</time>
      </trkpt>
      <trkpt lat="44.35621" lon="2.48705">
        <ele>637</ele>
        <time>2013-04-14T11:09:58Z</time>
      </trkpt>
      <trkpt lat="44.35623" lon="2.48699">
        <ele>637</ele>
        <time>2013-04-14T11:10:01Z</time>
      </trkpt>
      <trkpt lat="44.35625" lon="2.48692">
        <ele>636</ele>
        <time>2013-04-14T11:10:05Z</time>
      </trkpt>
      <trkpt lat="44.35627" lon="2.48685">
        <ele>636</ele>
        <time>2013-04-14T11:10:09Z</time>
      </trkpt>
      <trkpt lat="44.35629" lon="2.48672">
        <ele>636</ele>
        <time>2013-04-14T11:10:16Z</time>
      </trkpt>
      <trkpt lat="44.3563" lon="2.48665">
        <ele>635</ele>
        <time>2013-04-14T11:10:20Z</time>
      </trkpt>
      <trkpt lat="44.35632" lon="2.48655">
        <ele>635</ele>
        <time>2013-04-14T11:10:25Z</time>
      </trkpt>
      <trkpt lat="44.35632" lon="2.48648">
        <ele>635</ele>
        <time>2013-04-14T11:10:28Z</time>
      </trkpt>
      <trkpt lat="44.35633" lon="2.4864">
        <ele>635</ele>
        <time>2013-04-14T11:10:32Z</time>
      </trkpt>
      <trkpt lat="44.35634" lon="2.4863">
        <ele>635</ele>
        <time>2013-04-14T11:10:37Z</time>
      </trkpt>
      <trkpt lat="44.35635" lon="2.48623">
        <ele>636</ele>
        <time>2013-04-14T11:10:40Z</time>
      </trkpt>
      <trkpt lat="44.35636" lon="2.48616">
        <ele>637</ele>
        <time>2013-04-14T11:10:44Z</time>
      </trkpt>
      <trkpt lat="44.35639" lon="2.48605">
        <ele>637</ele>
        <time>2013-04-14T11:10:50Z</time>
      </trkpt>
      <trkpt lat="44.35642" lon="2.486">
        <ele>638</ele>
        <time>2013-04-14T11:10:53Z</time>
      </trkpt>
      <trkpt lat="44.35645" lon="2.48593">
        <ele>638</ele>
        <time>2013-04-14T11:10:58Z</time>
      </trkpt>
      <trkpt lat="44.35647" lon="2.48587">
        <ele>637</ele>
        <time>2013-04-14T11:11:02Z</time>
      </trkpt>
      <trkpt lat="44.3565" lon="2.4858">
        <ele>638</ele>
        <time>2013-04-14T11:11:05Z</time>
      </trkpt>
      <trkpt lat="44.35654" lon="2.48575">
        <ele>638</ele>
        <time>2013-04-14T11:11:08Z</time>
      </trkpt>
      <trkpt lat="44.35657" lon="2.48569">
        <ele>638</ele>
        <time>2013-04-14T11:11:12Z</time>
      </trkpt>
      <trkpt lat="44.35659" lon="2.48564">
        <ele>637</ele>
        <time>2013-04-14T11:11:16Z</time>
      </trkpt>
      <trkpt lat="44.35663" lon="2.48558">
        <ele>637</ele>
        <time>2013-04-14T11:11:20Z</time>
      </trkpt>
      <trkpt lat="44.35667" lon="2.48549">
        <ele>637</ele>
        <time>2013-04-14T11:11:25Z</time>
      </trkpt>
      <trkpt lat="44.35669" lon="2.48543">
        <ele>637</ele>
        <time>2013-04-14T11:11:28Z</time>
      </trkpt>
      <trkpt lat="44.35673" lon="2.48532">
        <ele>638</ele>
        <time>2013-04-14T11:11:34Z</time>
      </trkpt>
      <trkpt lat="44.35676" lon="2.48526">
        <ele>639</ele>
        <time>2013-04-14T11:11:38Z</time>
      </trkpt>
      <trkpt lat="44.35681" lon="2.48524">
        <ele>639</ele>
        <time>2013-04-14T11:11:42Z</time>
      </trkpt>
      <trkpt lat="44.35686" lon="2.48526">
        <ele>640</ele>
        <time>2013-04-14T11:11:46Z</time>
      </trkpt>
      <trkpt lat="44.35691" lon="2.4853">
        <ele>640</ele>
        <time>2013-04-14T11:11:50Z</time>
      </trkpt>
      <trkpt lat="44.35695" lon="2.48533">
        <ele>640</ele>
        <time>2013-04-14T11:11:53Z</time>
      </trkpt>
      <trkpt lat="44.357" lon="2.48536">
        <ele>640</ele>
        <time>2013-04-14T11:11:56Z</time>
      </trkpt>
      <trkpt lat="44.35703" lon="2.4854">
        <ele>641</ele>
        <time>2013-04-14T11:12:01Z</time>
      </trkpt>
      <trkpt lat="44.35708" lon="2.48543">
        <ele>642</ele>
        <time>2013-04-14T11:12:05Z</time>
      </trkpt>
      <trkpt lat="44.35713" lon="2.48548">
        <ele>642</ele>
        <time>2013-04-14T11:12:09Z</time>
      </trkpt>
      <trkpt lat="44.35718" lon="2.48552">
        <ele>642</ele>
        <time>2013-04-14T11:12:17Z</time>
      </trkpt>
      <trkpt lat="44.35723" lon="2.48557">
        <ele>642</ele>
        <time>2013-04-14T11:12:21Z</time>
      </trkpt>
      <trkpt lat="44.35726" lon="2.48561">
        <ele>642</ele>
        <time>2013-04-14T11:12:26Z</time>
      </trkpt>
      <trkpt lat="44.3573" lon="2.48566">
        <ele>642</ele>
        <time>2013-04-14T11:12:30Z</time>
      </trkpt>
      <trkpt lat="44.35733" lon="2.48573">
        <ele>640</ele>
        <time>2013-04-14T11:12:34Z</time>
      </trkpt>
      <trkpt lat="44.35737" lon="2.48578">
        <ele>640</ele>
        <time>2013-04-14T11:12:38Z</time>
      </trkpt>
      <trkpt lat="44.35741" lon="2.48582">
        <ele>641</ele>
        <time>2013-04-14T11:12:41Z</time>
      </trkpt>
      <trkpt lat="44.35745" lon="2.48585">
        <ele>641</ele>
        <time>2013-04-14T11:12:44Z</time>
      </trkpt>
      <trkpt lat="44.35749" lon="2.48588">
        <ele>641</ele>
        <time>2013-04-14T11:12:47Z</time>
      </trkpt>
      <trkpt lat="44.35755" lon="2.48591">
        <ele>641</ele>
        <time>2013-04-14T11:12:50Z</time>
      </trkpt>
      <trkpt lat="44.3576" lon="2.48594">
        <ele>640</ele>
        <time>2013-04-14T11:12:54Z</time>
      </trkpt>
      <trkpt lat="44.35768" lon="2.486">
        <ele>639</ele>
        <time>2013-04-14T11:13:00Z</time>
      </trkpt>
      <trkpt lat="44.35772" lon="2.48604">
        <ele>638</ele>
        <time>2013-04-14T11:13:03Z</time>
      </trkpt>
      <trkpt lat="44.35776" lon="2.48607">
        <ele>637</ele>
        <time>2013-04-14T11:13:06Z</time>
      </trkpt>
      <trkpt lat="44.3578" lon="2.4861">
        <ele>637</ele>
        <time>2013-04-14T11:13:09Z</time>
      </trkpt>
      <trkpt lat="44.35785" lon="2.48612">
        <ele>636</ele>
        <time>2013-04-14T11:13:13Z</time>
      </trkpt>
      <trkpt lat="44.35792" lon="2.48616">
        <ele>635</ele>
        <time>2013-04-14T11:13:18Z</time>
      </trkpt>
      <trkpt lat="44.35796" lon="2.4862">
        <ele>635</ele>
        <time>2013-04-14T11:13:22Z</time>
      </trkpt>
      <trkpt lat="44.35801" lon="2.48623">
        <ele>635</ele>
        <time>2013-04-14T11:13:27Z</time>
      </trkpt>
      <trkpt lat="44.35809" lon="2.48628">
        <ele>635</ele>
        <time>2013-04-14T11:13:33Z</time>
      </trkpt>
      <trkpt lat="44.35817" lon="2.48636">
        <ele>635</ele>
        <time>2013-04-14T11:13:41Z</time>
      </trkpt>
      <trkpt lat="44.35823" lon="2.48638">
        <ele>635</ele>
        <time>2013-04-14T11:13:44Z</time>
      </trkpt>
      <trkpt lat="44.35829" lon="2.4864">
        <ele>635</ele>
        <time>2013-04-14T11:13:47Z</time>
      </trkpt>
      <trkpt lat="44.35835" lon="2.48641">
        <ele>635</ele>
        <time>2013-04-14T11:13:50Z</time>
      </trkpt>
      <trkpt lat="44.35839" lon="2.48643">
        <ele>636</ele>
        <time>2013-04-14T11:13:53Z</time>
      </trkpt>
      <trkpt lat="44.35845" lon="2.48646">
        <ele>635</ele>
        <time>2013-04-14T11:13:57Z</time>
      </trkpt>
      <trkpt lat="44.35849" lon="2.48649">
        <ele>634</ele>
        <time>2013-04-14T11:14:00Z</time>
      </trkpt>
      <trkpt lat="44.35853" lon="2.48651">
        <ele>633</ele>
        <time>2013-04-14T11:14:04Z</time>
      </trkpt>
      <trkpt lat="44.35858" lon="2.48653">
        <ele>633</ele>
        <time>2013-04-14T11:14:08Z</time>
      </trkpt>
      <trkpt lat="44.35863" lon="2.48655">
        <ele>632</ele>
        <time>2013-04-14T11:14:11Z</time>
      </trkpt>
      <trkpt lat="44.35868" lon="2.48657">
        <ele>632</ele>
        <time>2013-04-14T11:14:14Z</time>
      </trkpt>
      <trkpt lat="44.35874" lon="2.4866">
        <ele>632</ele>
        <time>2013-04-14T11:14:18Z</time>
      </trkpt>
      <trkpt lat="44.35879" lon="2.48662">
        <ele>632</ele>
        <time>2013-04-14T11:14:22Z</time>
      </trkpt>
      <trkpt lat="44.35885" lon="2.48665">
        <ele>632</ele>
        <time>2013-04-14T11:14:26Z</time>
      </trkpt>
      <trkpt lat="44.35889" lon="2.48667">
        <ele>632</ele>
        <time>2013-04-14T11:14:29Z</time>
      </trkpt>
      <trkpt lat="44.35893" lon="2.48669">
        <ele>632</ele>
        <time>2013-04-14T11:14:32Z</time>
      </trkpt>
      <trkpt lat="44.35898" lon="2.4867">
        <ele>631</ele>
        <time>2013-04-14T11:14:35Z</time>
      </trkpt>
      <trkpt lat="44.35903" lon="2.48672">
        <ele>630</ele>
        <time>2013-04-14T11:14:39Z</time>
      </trkpt>
      <trkpt lat="44.35908" lon="2.48674">
        <ele>630</ele>
        <time>2013-04-14T11:14:43Z</time>
      </trkpt>
      <trkpt lat="44.35914" lon="2.48675">
        <ele>629</ele>
        <time>2013-04-14T11:14:47Z</time>
      </trkpt>
      <trkpt lat="44.35919" lon="2.48675">
        <ele>628</ele>
        <time>2013-04-14T11:14:50Z</time>
      </trkpt>
      <trkpt lat="44.35923" lon="2.48677">
        <ele>628</ele>
        <time>2013-04-14T11:14:53Z</time>
      </trkpt>
      <trkpt lat="44.35929" lon="2.48678">
        <ele>628</ele>
        <time>2013-04-14T11:14:57Z</time>
      </trkpt>
      <trkpt lat="44.35934" lon="2.48678">
        <ele>628</ele>
        <time>2013-04-14T11:15:01Z</time>
      </trkpt>
      <trkpt lat="44.35939" lon="2.48679">
        <ele>628</ele>
        <time>2013-04-14T11:15:04Z</time>
      </trkpt>
      <trkpt lat="44.35944" lon="2.48681">
        <ele>628</ele>
        <time>2013-04-14T11:15:08Z</time>
      </trkpt>
      <trkpt lat="44.35949" lon="2.48683">
        <ele>628</ele>
        <time>2013-04-14T11:15:11Z</time>
      </trkpt>
      <trkpt lat="44.35954" lon="2.48685">
        <ele>628</ele>
        <time>2013-04-14T11:15:14Z</time>
      </trkpt>
      <trkpt lat="44.35958" lon="2.48687">
        <ele>627</ele>
        <time>2013-04-14T11:15:17Z</time>
      </trkpt>
      <trkpt lat="44.35963" lon="2.48688">
        <ele>627</ele>
        <time>2013-04-14T11:15:20Z</time>
      </trkpt>
      <trkpt lat="44.35968" lon="2.48688">
        <ele>626</ele>
        <time>2013-04-14T11:15:23Z</time>
      </trkpt>
      <trkpt lat="44.35973" lon="2.48689">
        <ele>626</ele>
        <time>2013-04-14T11:15:26Z</time>
      </trkpt>
      <trkpt lat="44.35977" lon="2.4869">
        <ele>626</ele>
        <time>2013-04-14T11:15:29Z</time>
      </trkpt>
      <trkpt lat="44.35983" lon="2.48692">
        <ele>626</ele>
        <time>2013-04-14T11:15:33Z</time>
      </trkpt>
      <trkpt lat="44.35989" lon="2.48694">
        <ele>626</ele>
        <time>2013-04-14T11:15:37Z</time>
      </trkpt>
      <trkpt lat="44.35993" lon="2.48696">
        <ele>626</ele>
        <time>2013-04-14T11:15:40Z</time>
      </trkpt>
      <trkpt lat="44.35999" lon="2.48698">
        <ele>626</ele>
        <time>2013-04-14T11:15:44Z</time>
      </trkpt>
      <trkpt lat="44.36004" lon="2.48701">
        <ele>625</ele>
        <time>2013-04-14T11:15:47Z</time>
      </trkpt>
      <trkpt lat="44.36008" lon="2.48704">
        <ele>624</ele>
        <time>2013-04-14T11:15:50Z</time>
      </trkpt>
      <trkpt lat="44.36014" lon="2.48707">
        <ele>623</ele>
        <time>2013-04-14T11:15:54Z</time>
      </trkpt>
      <trkpt lat="44.36019" lon="2.48709">
        <ele>622</ele>
        <time>2013-04-14T11:15:57Z</time>
      </trkpt>
      <trkpt lat="44.36023" lon="2.48711">
        <ele>622</ele>
        <time>2013-04-14T11:16:00Z</time>
      </trkpt>
      <trkpt lat="44.36028" lon="2.48713">
        <ele>621</ele>
        <time>2013-04-14T11:16:03Z</time>
      </trkpt>
      <trkpt lat="44.36033" lon="2.48716">
        <ele>622</ele>
        <time>2013-04-14T11:16:07Z</time>
      </trkpt>
      <trkpt lat="44.36038" lon="2.48718">
        <ele>622</ele>
        <time>2013-04-14T11:16:10Z</time>
      </trkpt>
      <trkpt lat="44.36042" lon="2.48721">
        <ele>622</ele>
        <time>2013-04-14T11:16:13Z</time>
      </trkpt>
      <trkpt lat="44.36046" lon="2.48723">
        <ele>622</ele>
        <time>2013-04-14T11:16:16Z</time>
      </trkpt>
      <trkpt lat="44.36051" lon="2.48726">
        <ele>622</ele>
        <time>2013-04-14T11:16:19Z</time>
      </trkpt>
      <trkpt lat="44.36056" lon="2.4873">
        <ele>622</ele>
        <time>2013-04-14T11:16:23Z</time>
      </trkpt>
      <trkpt lat="44.36061" lon="2.48733">
        <ele>622</ele>
        <time>2013-04-14T11:16:27Z</time>
      </trkpt>
      <trkpt lat="44.36065" lon="2.48736">
        <ele>622</ele>
        <time>2013-04-14T11:16:31Z</time>
      </trkpt>
      <trkpt lat="44.3607" lon="2.4874">
        <ele>622</ele>
        <time>2013-04-14T11:16:35Z</time>
      </trkpt>
      <trkpt lat="44.36076" lon="2.48741">
        <ele>622</ele>
        <time>2013-04-14T11:16:39Z</time>
      </trkpt>
      <trkpt lat="44.3608" lon="2.48744">
        <ele>622</ele>
        <time>2013-04-14T11:16:42Z</time>
      </trkpt>
      <trkpt lat="44.36084" lon="2.48747">
        <ele>622</ele>
        <time>2013-04-14T11:16:45Z</time>
      </trkpt>
      <trkpt lat="44.36089" lon="2.48749">
        <ele>622</ele>
        <time>2013-04-14T11:16:49Z</time>
      </trkpt>
      <trkpt lat="44.36094" lon="2.48752">
        <ele>622</ele>
        <time>2013-04-14T11:16:53Z</time>
      </trkpt>
      <trkpt lat="44.36099" lon="2.48755">
        <ele>623</ele>
        <time>2013-04-14T11:16:58Z</time>
      </trkpt>
      <trkpt lat="44.36104" lon="2.48757">
        <ele>624</ele>
        <time>2013-04-14T11:17:02Z</time>
      </trkpt>
      <trkpt lat="44.36108" lon="2.48759">
        <ele>624</ele>
        <time>2013-04-14T11:17:05Z</time>
      </trkpt>
      <trkpt lat="44.36115" lon="2.48764">
        <ele>625</ele>
        <time>2013-04-14T11:17:09Z</time>
      </trkpt>
      <trkpt lat="44.36119" lon="2.48767">
        <ele>624</ele>
        <time>2013-04-14T11:17:12Z</time>
      </trkpt>
      <trkpt lat="44.36123" lon="2.48771">
        <ele>623</ele>
        <time>2013-04-14T11:17:15Z</time>
      </trkpt>
      <trkpt lat="44.36128" lon="2.48773">
        <ele>622</ele>
        <time>2013-04-14T11:17:18Z</time>
      </trkpt>
      <trkpt lat="44.36133" lon="2.48777">
        <ele>621</ele>
        <time>2013-04-14T11:17:22Z</time>
      </trkpt>
      <trkpt lat="44.36137" lon="2.4878">
        <ele>621</ele>
        <time>2013-04-14T11:17:25Z</time>
      </trkpt>
      <trkpt lat="44.36141" lon="2.48783">
        <ele>620</ele>
        <time>2013-04-14T11:17:28Z</time>
      </trkpt>
      <trkpt lat="44.36146" lon="2.48786">
        <ele>620</ele>
        <time>2013-04-14T11:17:31Z</time>
      </trkpt>
      <trkpt lat="44.3615" lon="2.48789">
        <ele>619</ele>
        <time>2013-04-14T11:17:34Z</time>
      </trkpt>
      <trkpt lat="44.36155" lon="2.48793">
        <ele>619</ele>
        <time>2013-04-14T11:17:38Z</time>
      </trkpt>
      <trkpt lat="44.3616" lon="2.48797">
        <ele>619</ele>
        <time>2013-04-14T11:17:42Z</time>
      </trkpt>
      <trkpt lat="44.36165" lon="2.48799">
        <ele>618</ele>
        <time>2013-04-14T11:17:46Z</time>
      </trkpt>
      <trkpt lat="44.3617" lon="2.48803">
        <ele>618</ele>
        <time>2013-04-14T11:17:50Z</time>
      </trkpt>
      <trkpt lat="44.36175" lon="2.48806">
        <ele>618</ele>
        <time>2013-04-14T11:17:54Z</time>
      </trkpt>
      <trkpt lat="44.3618" lon="2.48809">
        <ele>617</ele>
        <time>2013-04-14T11:17:58Z</time>
      </trkpt>
      <trkpt lat="44.36185" lon="2.48812">
        <ele>617</ele>
        <time>2013-04-14T11:18:02Z</time>
      </trkpt>
      <trkpt lat="44.3619" lon="2.48814">
        <ele>617</ele>
        <time>2013-04-14T11:18:06Z</time>
      </trkpt>
      <trkpt lat="44.36195" lon="2.48816">
        <ele>617</ele>
        <time>2013-04-14T11:18:09Z</time>
      </trkpt>
      <trkpt lat="44.36199" lon="2.48818">
        <ele>616</ele>
        <time>2013-04-14T11:18:12Z</time>
      </trkpt>
      <trkpt lat="44.36204" lon="2.48822">
        <ele>616</ele>
        <time>2013-04-14T11:18:16Z</time>
      </trkpt>
      <trkpt lat="44.36209" lon="2.48826">
        <ele>616</ele>
        <time>2013-04-14T11:18:20Z</time>
      </trkpt>
      <trkpt lat="44.36214" lon="2.48829">
        <ele>615</ele>
        <time>2013-04-14T11:18:23Z</time>
      </trkpt>
      <trkpt lat="44.36219" lon="2.48832">
        <ele>614</ele>
        <time>2013-04-14T11:18:26Z</time>
      </trkpt>
      <trkpt lat="44.36224" lon="2.48835">
        <ele>614</ele>
        <time>2013-04-14T11:18:30Z</time>
      </trkpt>
      <trkpt lat="44.3623" lon="2.48839">
        <ele>614</ele>
        <time>2013-04-14T11:18:34Z</time>
      </trkpt>
      <trkpt lat="44.36234" lon="2.48842">
        <ele>613</ele>
        <time>2013-04-14T11:18:37Z</time>
      </trkpt>
      <trkpt lat="44.36238" lon="2.48845">
        <ele>613</ele>
        <time>2013-04-14T11:18:40Z</time>
      </trkpt>
      <trkpt lat="44.36243" lon="2.48847">
        <ele>613</ele>
        <time>2013-04-14T11:18:43Z</time>
      </trkpt>
      <trkpt lat="44.36247" lon="2.4885">
        <ele>612</ele>
        <time>2013-04-14T11:18:46Z</time>
      </trkpt>
      <trkpt lat="44.36251" lon="2.48853">
        <ele>611</ele>
        <time>2013-04-14T11:18:49Z</time>
      </trkpt>
      <trkpt lat="44.36255" lon="2.48857">
        <ele>610</ele>
        <time>2013-04-14T11:18:53Z</time>
      </trkpt>
      <trkpt lat="44.36261" lon="2.48862">
        <ele>610</ele>
        <time>2013-04-14T11:18:57Z</time>
      </trkpt>
      <trkpt lat="44.36265" lon="2.48865">
        <ele>610</ele>
        <time>2013-04-14T11:19:00Z</time>
      </trkpt>
      <trkpt lat="44.3627" lon="2.4887">
        <ele>610</ele>
        <time>2013-04-14T11:19:04Z</time>
      </trkpt>
      <trkpt lat="44.36277" lon="2.48877">
        <ele>610</ele>
        <time>2013-04-14T11:19:10Z</time>
      </trkpt>
      <trkpt lat="44.3628" lon="2.48883">
        <ele>610</ele>
        <time>2013-04-14T11:19:14Z</time>
      </trkpt>
      <trkpt lat="44.36284" lon="2.48887">
        <ele>610</ele>
        <time>2013-04-14T11:19:18Z</time>
      </trkpt>
      <trkpt lat="44.36288" lon="2.4889">
        <ele>610</ele>
        <time>2013-04-14T11:19:21Z</time>
      </trkpt>
      <trkpt lat="44.36291" lon="2.48896">
        <ele>610</ele>
        <time>2013-04-14T11:19:24Z</time>
      </trkpt>
      <trkpt lat="44.36296" lon="2.48901">
        <ele>611</ele>
        <time>2013-04-14T11:19:28Z</time>
      </trkpt>
      <trkpt lat="44.363" lon="2.48906">
        <ele>611</ele>
        <time>2013-04-14T11:19:31Z</time>
      </trkpt>
      <trkpt lat="44.36304" lon="2.48911">
        <ele>610</ele>
        <time>2013-04-14T11:19:35Z</time>
      </trkpt>
      <trkpt lat="44.36309" lon="2.48922">
        <ele>608</ele>
        <time>2013-04-14T11:19:40Z</time>
      </trkpt>
      <trkpt lat="44.36312" lon="2.48934">
        <ele>606</ele>
        <time>2013-04-14T11:19:46Z</time>
      </trkpt>
      <trkpt lat="44.3631" lon="2.48942">
        <ele>606</ele>
        <time>2013-04-14T11:19:50Z</time>
      </trkpt>
      <trkpt lat="44.36308" lon="2.48948">
        <ele>605</ele>
        <time>2013-04-14T11:19:54Z</time>
      </trkpt>
      <trkpt lat="44.36305" lon="2.48955">
        <ele>605</ele>
        <time>2013-04-14T11:19:59Z</time>
      </trkpt>
      <trkpt lat="44.36303" lon="2.48962">
        <ele>605</ele>
        <time>2013-04-14T11:20:03Z</time>
      </trkpt>
      <trkpt lat="44.36301" lon="2.4897">
        <ele>606</ele>
        <time>2013-04-14T11:20:07Z</time>
      </trkpt>
      <trkpt lat="44.36298" lon="2.48977">
        <ele>606</ele>
        <time>2013-04-14T11:20:11Z</time>
      </trkpt>
      <trkpt lat="44.36295" lon="2.48985">
        <ele>607</ele>
        <time>2013-04-14T11:20:15Z</time>
      </trkpt>
      <trkpt lat="44.36293" lon="2.48992">
        <ele>607</ele>
        <time>2013-04-14T11:20:18Z</time>
      </trkpt>
      <trkpt lat="44.36292" lon="2.48999">
        <ele>606</ele>
        <time>2013-04-14T11:20:22Z</time>
      </trkpt>
      <trkpt lat="44.3629" lon="2.49009">
        <ele>606</ele>
        <time>2013-04-14T11:20:27Z</time>
      </trkpt>
      <trkpt lat="44.3629" lon="2.49017">
        <ele>606</ele>
        <time>2013-04-14T11:20:31Z</time>
      </trkpt>
      <trkpt lat="44.36288" lon="2.49024">
        <ele>607</ele>
        <time>2013-04-14T11:20:34Z</time>
      </trkpt>
      <trkpt lat="44.36286" lon="2.49032">
        <ele>608</ele>
        <time>2013-04-14T11:20:38Z</time>
      </trkpt>
      <trkpt lat="44.36285" lon="2.49038">
        <ele>607</ele>
        <time>2013-04-14T11:20:41Z</time>
      </trkpt>
      <trkpt lat="44.36284" lon="2.49046">
        <ele>607</ele>
        <time>2013-04-14T11:20:46Z</time>
      </trkpt>
      <trkpt lat="44.36282" lon="2.49053">
        <ele>606</ele>
        <time>2013-04-14T11:20:50Z</time>
      </trkpt>
      <trkpt lat="44.36279" lon="2.4906">
        <ele>606</ele>
        <time>2013-04-14T11:20:53Z</time>
      </trkpt>
      <trkpt lat="44.36278" lon="2.49066">
        <ele>608</ele>
        <time>2013-04-14T11:20:59Z</time>
      </trkpt>
      <trkpt lat="44.36277" lon="2.49074">
        <ele>608</ele>
        <time>2013-04-14T11:21:03Z</time>
      </trkpt>
      <trkpt lat="44.36273" lon="2.49082">
        <ele>607</ele>
        <time>2013-04-14T11:21:06Z</time>
      </trkpt>
      <trkpt lat="44.3627" lon="2.49088">
        <ele>606</ele>
        <time>2013-04-14T11:21:09Z</time>
      </trkpt>
      <trkpt lat="44.36268" lon="2.49095">
        <ele>605</ele>
        <time>2013-04-14T11:21:13Z</time>
      </trkpt>
      <trkpt lat="44.36267" lon="2.49103">
        <ele>605</ele>
        <time>2013-04-14T11:21:16Z</time>
      </trkpt>
      <trkpt lat="44.36266" lon="2.4911">
        <ele>605</ele>
        <time>2013-04-14T11:21:19Z</time>
      </trkpt>
      <trkpt lat="44.36267" lon="2.49117">
        <ele>605</ele>
        <time>2013-04-14T11:21:23Z</time>
      </trkpt>
      <trkpt lat="44.36268" lon="2.49125">
        <ele>605</ele>
        <time>2013-04-14T11:21:27Z</time>
      </trkpt>
      <trkpt lat="44.36269" lon="2.49131">
        <ele>605</ele>
        <time>2013-04-14T11:21:31Z</time>
      </trkpt>
      <trkpt lat="44.36271" lon="2.49138">
        <ele>605</ele>
        <time>2013-04-14T11:21:36Z</time>
      </trkpt>
      <trkpt lat="44.36275" lon="2.49144">
        <ele>606</ele>
        <time>2013-04-14T11:21:41Z</time>
      </trkpt>
      <trkpt lat="44.36279" lon="2.49148">
        <ele>607</ele>
        <time>2013-04-14T11:21:45Z</time>
      </trkpt>
      <trkpt lat="44.36282" lon="2.49154">
        <ele>607</ele>
        <time>2013-04-14T11:21:48Z</time>
      </trkpt>
      <trkpt lat="44.36286" lon="2.49159">
        <ele>608</ele>
        <time>2013-04-14T11:21:52Z</time>
      </trkpt>
      <trkpt lat="44.36289" lon="2.49163">
        <ele>608</ele>
        <time>2013-04-14T11:21:55Z</time>
      </trkpt>
      <trkpt lat="44.36293" lon="2.49169">
        <ele>608</ele>
        <time>2013-04-14T11:21:59Z</time>
      </trkpt>
      <trkpt lat="44.36296" lon="2.49173">
        <ele>608</ele>
        <time>2013-04-14T11:22:03Z</time>
      </trkpt>
      <trkpt lat="44.363" lon="2.49178">
        <ele>608</ele>
        <time>2013-04-14T11:22:06Z</time>
      </trkpt>
      <trkpt lat="44.36304" lon="2.49183">
        <ele>608</ele>
        <time>2013-04-14T11:22:10Z</time>
      </trkpt>
      <trkpt lat="44.36308" lon="2.49187">
        <ele>607</ele>
        <time>2013-04-14T11:22:13Z</time>
      </trkpt>
      <trkpt lat="44.36312" lon="2.49191">
        <ele>607</ele>
        <time>2013-04-14T11:22:17Z</time>
      </trkpt>
      <trkpt lat="44.36316" lon="2.49196">
        <ele>606</ele>
        <time>2013-04-14T11:22:21Z</time>
      </trkpt>
      <trkpt lat="44.36319" lon="2.492">
        <ele>606</ele>
        <time>2013-04-14T11:22:24Z</time>
      </trkpt>
      <trkpt lat="44.36323" lon="2.49205">
        <ele>605</ele>
        <time>2013-04-14T11:22:27Z</time>
      </trkpt>
      <trkpt lat="44.36328" lon="2.49209">
        <ele>605</ele>
        <time>2013-04-14T11:22:31Z</time>
      </trkpt>
      <trkpt lat="44.36332" lon="2.49212">
        <ele>605</ele>
        <time>2013-04-14T11:22:34Z</time>
      </trkpt>
      <trkpt lat="44.36336" lon="2.49217">
        <ele>606</ele>
        <time>2013-04-14T11:22:38Z</time>
      </trkpt>
      <trkpt lat="44.3634" lon="2.49223">
        <ele>607</ele>
        <time>2013-04-14T11:22:41Z</time>
      </trkpt>
      <trkpt lat="44.36344" lon="2.49228">
        <ele>606</ele>
        <time>2013-04-14T11:22:44Z</time>
      </trkpt>
      <trkpt lat="44.36349" lon="2.49232">
        <ele>607</ele>
        <time>2013-04-14T11:22:48Z</time>
      </trkpt>
      <trkpt lat="44.36353" lon="2.49237">
        <ele>607</ele>
        <time>2013-04-14T11:22:52Z</time>
      </trkpt>
      <trkpt lat="44.36357" lon="2.49243">
        <ele>608</ele>
        <time>2013-04-14T11:22:56Z</time>
      </trkpt>
      <trkpt lat="44.36362" lon="2.49248">
        <ele>608</ele>
        <time>2013-04-14T11:23:00Z</time>
      </trkpt>
      <trkpt lat="44.36365" lon="2.49252">
        <ele>608</ele>
        <time>2013-04-14T11:23:03Z</time>
      </trkpt>
      <trkpt lat="44.36368" lon="2.49256">
        <ele>608</ele>
        <time>2013-04-14T11:23:07Z</time>
      </trkpt>
      <trkpt lat="44.36373" lon="2.49261">
        <ele>607</ele>
        <time>2013-04-14T11:23:11Z</time>
      </trkpt>
      <trkpt lat="44.36379" lon="2.49263">
        <ele>606</ele>
        <time>2013-04-14T11:23:18Z</time>
      </trkpt>
      <trkpt lat="44.36389" lon="2.49267">
        <ele>605</ele>
        <time>2013-04-14T11:23:25Z</time>
      </trkpt>
      <trkpt lat="44.36397" lon="2.49274">
        <ele>604</ele>
        <time>2013-04-14T11:23:30Z</time>
      </trkpt>
      <trkpt lat="44.364" lon="2.49279">
        <ele>603</ele>
        <time>2013-04-14T11:23:33Z</time>
      </trkpt>
      <trkpt lat="44.36403" lon="2.49284">
        <ele>602</ele>
        <time>2013-04-14T11:23:36Z</time>
      </trkpt>
      <trkpt lat="44.36406" lon="2.49289">
        <ele>601</ele>
        <time>2013-04-14T11:23:39Z</time>
      </trkpt>
      <trkpt lat="44.3641" lon="2.49295">
        <ele>600</ele>
        <time>2013-04-14T11:23:43Z</time>
      </trkpt>
      <trkpt lat="44.36412" lon="2.49301">
        <ele>599</ele>
        <time>2013-04-14T11:23:46Z</time>
      </trkpt>
      <trkpt lat="44.36415" lon="2.49306">
        <ele>599</ele>
        <time>2013-04-14T11:23:49Z</time>
      </trkpt>
      <trkpt lat="44.36418" lon="2.49311">
        <ele>599</ele>
        <time>2013-04-14T11:23:53Z</time>
      </trkpt>
      <trkpt lat="44.36421" lon="2.49317">
        <ele>598</ele>
        <time>2013-04-14T11:23:57Z</time>
      </trkpt>
      <trkpt lat="44.36424" lon="2.49323">
        <ele>598</ele>
        <time>2013-04-14T11:24:01Z</time>
      </trkpt>
      <trkpt lat="44.36428" lon="2.49329">
        <ele>598</ele>
        <time>2013-04-14T11:24:05Z</time>
      </trkpt>
      <trkpt lat="44.36432" lon="2.49334">
        <ele>598</ele>
        <time>2013-04-14T11:24:09Z</time>
      </trkpt>
      <trkpt lat="44.36436" lon="2.49339">
        <ele>599</ele>
        <time>2013-04-14T11:24:13Z</time>
      </trkpt>
      <trkpt lat="44.36439" lon="2.49344">
        <ele>600</ele>
        <time>2013-04-14T11:24:17Z</time>
      </trkpt>
      <trkpt lat="44.36443" lon="2.4935">
        <ele>600</ele>
        <time>2013-04-14T11:24:21Z</time>
      </trkpt>
      <trkpt lat="44.36447" lon="2.49357">
        <ele>601</ele>
        <time>2013-04-14T11:24:25Z</time>
      </trkpt>
      <trkpt lat="44.3645" lon="2.49362">
        <ele>601</ele>
        <time>2013-04-14T11:24:28Z</time>
      </trkpt>
      <trkpt lat="44.36454" lon="2.49367">
        <ele>600</ele>
        <time>2013-04-14T11:24:32Z</time>
      </trkpt>
      <trkpt lat="44.36458" lon="2.49373">
        <ele>600</ele>
        <time>2013-04-14T11:24:36Z</time>
      </trkpt>
      <trkpt lat="44.36462" lon="2.49379">
        <ele>601</ele>
        <time>2013-04-14T11:24:40Z</time>
      </trkpt>
      <trkpt lat="44.36465" lon="2.49385">
        <ele>601</ele>
        <time>2013-04-14T11:24:45Z</time>
      </trkpt>
      <trkpt lat="44.36469" lon="2.49391">
        <ele>600</ele>
        <time>2013-04-14T11:24:49Z</time>
      </trkpt>
      <trkpt lat="44.36472" lon="2.49397">
        <ele>600</ele>
        <time>2013-04-14T11:24:52Z</time>
      </trkpt>
      <trkpt lat="44.36475" lon="2.49402">
        <ele>598</ele>
        <time>2013-04-14T11:24:56Z</time>
      </trkpt>
      <trkpt lat="44.36478" lon="2.49408">
        <ele>597</ele>
        <time>2013-04-14T11:25:00Z</time>
      </trkpt>
      <trkpt lat="44.36482" lon="2.49414">
        <ele>597</ele>
        <time>2013-04-14T11:25:04Z</time>
      </trkpt>
      <trkpt lat="44.36486" lon="2.4942">
        <ele>597</ele>
        <time>2013-04-14T11:25:07Z</time>
      </trkpt>
      <trkpt lat="44.36489" lon="2.49425">
        <ele>596</ele>
        <time>2013-04-14T11:25:10Z</time>
      </trkpt>
      <trkpt lat="44.36492" lon="2.4943">
        <ele>596</ele>
        <time>2013-04-14T11:25:13Z</time>
      </trkpt>
      <trkpt lat="44.36495" lon="2.49435">
        <ele>595</ele>
        <time>2013-04-14T11:25:16Z</time>
      </trkpt>
      <trkpt lat="44.36498" lon="2.49442">
        <ele>594</ele>
        <time>2013-04-14T11:25:20Z</time>
      </trkpt>
      <trkpt lat="44.36501" lon="2.49448">
        <ele>594</ele>
        <time>2013-04-14T11:25:23Z</time>
      </trkpt>
      <trkpt lat="44.36504" lon="2.49453">
        <ele>593</ele>
        <time>2013-04-14T11:25:26Z</time>
      </trkpt>
      <trkpt lat="44.36507" lon="2.49458">
        <ele>592</ele>
        <time>2013-04-14T11:25:29Z</time>
      </trkpt>
      <trkpt lat="44.3651" lon="2.49463">
        <ele>591</ele>
        <time>2013-04-14T11:25:32Z</time>
      </trkpt>
      <trkpt lat="44.36513" lon="2.49469">
        <ele>590</ele>
        <time>2013-04-14T11:25:35Z</time>
      </trkpt>
      <trkpt lat="44.36517" lon="2.49475">
        <ele>590</ele>
        <time>2013-04-14T11:25:39Z</time>
      </trkpt>
      <trkpt lat="44.3652" lon="2.49481">
        <ele>590</ele>
        <time>2013-04-14T11:25:44Z</time>
      </trkpt>
      <trkpt lat="44.36523" lon="2.49486">
        <ele>591</ele>
        <time>2013-04-14T11:25:47Z</time>
      </trkpt>
      <trkpt lat="44.36526" lon="2.49491">
        <ele>592</ele>
        <time>2013-04-14T11:25:49Z</time>
      </trkpt>
      <trkpt lat="44.36529" lon="2.49497">
        <ele>592</ele>
        <time>2013-04-14T11:25:52Z</time>
      </trkpt>
      <trkpt lat="44.36531" lon="2.49503">
        <ele>593</ele>
        <time>2013-04-14T11:25:56Z</time>
      </trkpt>
      <trkpt lat="44.36534" lon="2.49508">
        <ele>593</ele>
        <time>2013-04-14T11:25:59Z</time>
      </trkpt>
      <trkpt lat="44.36537" lon="2.49513">
        <ele>593</ele>
        <time>2013-04-14T11:26:03Z</time>
      </trkpt>
      <trkpt lat="44.3654" lon="2.49519">
        <ele>593</ele>
        <time>2013-04-14T11:26:06Z</time>
      </trkpt>
      <trkpt lat="44.36543" lon="2.49526">
        <ele>593</ele>
        <time>2013-04-14T11:26:10Z</time>
      </trkpt>
      <trkpt lat="44.36546" lon="2.49532">
        <ele>592</ele>
        <time>2013-04-14T11:26:13Z</time>
      </trkpt>
      <trkpt lat="44.3655" lon="2.49537">
        <ele>591</ele>
        <time>2013-04-14T11:26:17Z</time>
      </trkpt>
      <trkpt lat="44.36554" lon="2.49544">
        <ele>591</ele>
        <time>2013-04-14T11:26:21Z</time>
      </trkpt>
      <trkpt lat="44.36557" lon="2.49549">
        <ele>590</ele>
        <time>2013-04-14T11:26:25Z</time>
      </trkpt>
      <trkpt lat="44.36564" lon="2.49559">
        <ele>590</ele>
        <time>2013-04-14T11:26:30Z</time>
      </trkpt>
      <trkpt lat="44.36567" lon="2.49563">
        <ele>589</ele>
        <time>2013-04-14T11:26:33Z</time>
      </trkpt>
      <trkpt lat="44.36571" lon="2.49569">
        <ele>589</ele>
        <time>2013-04-14T11:26:36Z</time>
      </trkpt>
      <trkpt lat="44.36574" lon="2.49576">
        <ele>589</ele>
        <time>2013-04-14T11:26:40Z</time>
      </trkpt>
      <trkpt lat="44.36577" lon="2.49582">
        <ele>590</ele>
        <time>2013-04-14T11:26:44Z</time>
      </trkpt>
      <trkpt lat="44.36579" lon="2.49588">
        <ele>590</ele>
        <time>2013-04-14T11:26:48Z</time>
      </trkpt>
      <trkpt lat="44.36582" lon="2.49595">
        <ele>590</ele>
        <time>2013-04-14T11:26:52Z</time>
      </trkpt>
      <trkpt lat="44.36586" lon="2.496">
        <ele>590</ele>
        <time>2013-04-14T11:26:55Z</time>
      </trkpt>
      <trkpt lat="44.36589" lon="2.49605">
        <ele>590</ele>
        <time>2013-04-14T11:26:59Z</time>
      </trkpt>
      <trkpt lat="44.36592" lon="2.49613">
        <ele>590</ele>
        <time>2013-04-14T11:27:03Z</time>
      </trkpt>
      <trkpt lat="44.36594" lon="2.4962">
        <ele>589</ele>
        <time>2013-04-14T11:27:06Z</time>
      </trkpt>
      <trkpt lat="44.36595" lon="2.49627">
        <ele>589</ele>
        <time>2013-04-14T11:27:09Z</time>
      </trkpt>
      <trkpt lat="44.36596" lon="2.49634">
        <ele>589</ele>
        <time>2013-04-14T11:27:12Z</time>
      </trkpt>
      <trkpt lat="44.36598" lon="2.49641">
        <ele>588</ele>
        <time>2013-04-14T11:27:15Z</time>
      </trkpt>
      <trkpt lat="44.36599" lon="2.49647">
        <ele>587</ele>
        <time>2013-04-14T11:27:18Z</time>
      </trkpt>
      <trkpt lat="44.366" lon="2.49655">
        <ele>586</ele>
        <time>2013-04-14T11:27:22Z</time>
      </trkpt>
      <trkpt lat="44.366" lon="2.49662">
        <ele>586</ele>
        <time>2013-04-14T11:27:25Z</time>
      </trkpt>
      <trkpt lat="44.366" lon="2.49669">
        <ele>586</ele>
        <time>2013-04-14T11:27:28Z</time>
      </trkpt>
      <trkpt lat="44.36602" lon="2.49675">
        <ele>585</ele>
        <time>2013-04-14T11:27:33Z</time>
      </trkpt>
      <trkpt lat="44.36606" lon="2.49679">
        <ele>584</ele>
        <time>2013-04-14T11:27:37Z</time>
      </trkpt>
      <trkpt lat="44.3661" lon="2.49683">
        <ele>583</ele>
        <time>2013-04-14T11:27:41Z</time>
      </trkpt>
      <trkpt lat="44.36615" lon="2.49686">
        <ele>583</ele>
        <time>2013-04-14T11:27:44Z</time>
      </trkpt>
      <trkpt lat="44.36621" lon="2.49687">
        <ele>583</ele>
        <time>2013-04-14T11:27:48Z</time>
      </trkpt>
      <trkpt lat="44.36626" lon="2.49686">
        <ele>584</ele>
        <time>2013-04-14T11:27:52Z</time>
      </trkpt>
      <trkpt lat="44.36631" lon="2.49688">
        <ele>585</ele>
        <time>2013-04-14T11:27:56Z</time>
      </trkpt>
      <trkpt lat="44.36637" lon="2.4969">
        <ele>585</ele>
        <time>2013-04-14T11:28:00Z</time>
      </trkpt>
      <trkpt lat="44.36642" lon="2.49692">
        <ele>585</ele>
        <time>2013-04-14T11:28:05Z</time>
      </trkpt>
      <trkpt lat="44.36647" lon="2.49694">
        <ele>586</ele>
        <time>2013-04-14T11:28:09Z</time>
      </trkpt>
      <trkpt lat="44.36652" lon="2.49696">
        <ele>587</ele>
        <time>2013-04-14T11:28:13Z</time>
      </trkpt>
      <trkpt lat="44.36658" lon="2.49698">
        <ele>588</ele>
        <time>2013-04-14T11:28:18Z</time>
      </trkpt>
      <trkpt lat="44.36664" lon="2.49701">
        <ele>588</ele>
        <time>2013-04-14T11:28:22Z</time>
      </trkpt>
      <trkpt lat="44.36669" lon="2.49703">
        <ele>587</ele>
        <time>2013-04-14T11:28:25Z</time>
      </trkpt>
      <trkpt lat="44.36674" lon="2.49705">
        <ele>587</ele>
        <time>2013-04-14T11:28:28Z</time>
      </trkpt>
      <trkpt lat="44.36678" lon="2.49707">
        <ele>586</ele>
        <time>2013-04-14T11:28:31Z</time>
      </trkpt>
      <trkpt lat="44.36684" lon="2.49709">
        <ele>586</ele>
        <time>2013-04-14T11:28:35Z</time>
      </trkpt>
      <trkpt lat="44.36689" lon="2.4971">
        <ele>585</ele>
        <time>2013-04-14T11:28:38Z</time>
      </trkpt>
      <trkpt lat="44.36693" lon="2.49711">
        <ele>585</ele>
        <time>2013-04-14T11:28:41Z</time>
      </trkpt>
      <trkpt lat="44.36701" lon="2.49715">
        <ele>584</ele>
        <time>2013-04-14T11:28:47Z</time>
      </trkpt>
      <trkpt lat="44.36706" lon="2.49718">
        <ele>584</ele>
        <time>2013-04-14T11:28:50Z</time>
      </trkpt>
      <trkpt lat="44.36711" lon="2.4972">
        <ele>583</ele>
        <time>2013-04-14T11:28:54Z</time>
      </trkpt>
      <trkpt lat="44.36715" lon="2.49723">
        <ele>582</ele>
        <time>2013-04-14T11:28:57Z</time>
      </trkpt>
      <trkpt lat="44.36719" lon="2.49726">
        <ele>582</ele>
        <time>2013-04-14T11:29:00Z</time>
      </trkpt>
      <trkpt lat="44.36723" lon="2.49729">
        <ele>582</ele>
        <time>2013-04-14T11:29:03Z</time>
      </trkpt>
      <trkpt lat="44.36728" lon="2.49731">
        <ele>582</ele>
        <time>2013-04-14T11:29:06Z</time>
      </trkpt>
      <trkpt lat="44.36734" lon="2.49733">
        <ele>583</ele>
        <time>2013-04-14T11:29:10Z</time>
      </trkpt>
      <trkpt lat="44.36738" lon="2.49736">
        <ele>583</ele>
        <time>2013-04-14T11:29:13Z</time>
      </trkpt>
      <trkpt lat="44.36742" lon="2.49739">
        <ele>584</ele>
        <time>2013-04-14T11:29:16Z</time>
      </trkpt>
      <trkpt lat="44.36748" lon="2.49742">
        <ele>584</ele>
        <time>2013-04-14T11:29:19Z</time>
      </trkpt>
      <trkpt lat="44.36752" lon="2.49745">
        <ele>585</ele>
        <time>2013-04-14T11:29:22Z</time>
      </trkpt>
      <trkpt lat="44.36756" lon="2.49748">
        <ele>584</ele>
        <time>2013-04-14T11:29:25Z</time>
      </trkpt>
      <trkpt lat="44.36761" lon="2.49752">
        <ele>584</ele>
        <time>2013-04-14T11:29:29Z</time>
      </trkpt>
      <trkpt lat="44.36765" lon="2.49756">
        <ele>584</ele>
        <time>2013-04-14T11:29:32Z</time>
      </trkpt>
      <trkpt lat="44.36772" lon="2.4976">
        <ele>584</ele>
        <time>2013-04-14T11:29:38Z</time>
      </trkpt>
      <trkpt lat="44.36777" lon="2.49763">
        <ele>584</ele>
        <time>2013-04-14T11:29:41Z</time>
      </trkpt>
      <trkpt lat="44.36786" lon="2.49766">
        <ele>585</ele>
        <time>2013-04-14T11:29:48Z</time>
      </trkpt>
      <trkpt lat="44.36792" lon="2.49768">
        <ele>585</ele>
        <time>2013-04-14T11:29:52Z</time>
      </trkpt>
      <trkpt lat="44.36797" lon="2.49769">
        <ele>585</ele>
        <time>2013-04-14T11:29:56Z</time>
      </trkpt>
      <trkpt lat="44.36803" lon="2.49773">
        <ele>585</ele>
        <time>2013-04-14T11:30:02Z</time>
      </trkpt>
      <trkpt lat="44.36808" lon="2.49776">
        <ele>585</ele>
        <time>2013-04-14T11:30:06Z</time>
      </trkpt>
      <trkpt lat="44.36813" lon="2.49778">
        <ele>585</ele>
        <time>2013-04-14T11:30:10Z</time>
      </trkpt>
      <trkpt lat="44.3682" lon="2.49781">
        <ele>585</ele>
        <time>2013-04-14T11:30:15Z</time>
      </trkpt>
      <trkpt lat="44.36825" lon="2.49784">
        <ele>585</ele>
        <time>2013-04-14T11:30:18Z</time>
      </trkpt>
      <trkpt lat="44.36829" lon="2.49786">
        <ele>584</ele>
        <time>2013-04-14T11:30:21Z</time>
      </trkpt>
      <trkpt lat="44.36835" lon="2.49788">
        <ele>584</ele>
        <time>2013-04-14T11:30:25Z</time>
      </trkpt>
      <trkpt lat="44.3684" lon="2.49789">
        <ele>584</ele>
        <time>2013-04-14T11:30:29Z</time>
      </trkpt>
      <trkpt lat="44.36845" lon="2.4979">
        <ele>585</ele>
        <time>2013-04-14T11:30:33Z</time>
      </trkpt>
      <trkpt lat="44.36851" lon="2.49791">
        <ele>585</ele>
        <time>2013-04-14T11:30:37Z</time>
      </trkpt>
      <trkpt lat="44.36856" lon="2.49789">
        <ele>585</ele>
        <time>2013-04-14T11:30:41Z</time>
      </trkpt>
      <trkpt lat="44.3686" lon="2.49787">
        <ele>585</ele>
        <time>2013-04-14T11:30:44Z</time>
      </trkpt>
      <trkpt lat="44.36864" lon="2.49783">
        <ele>585</ele>
        <time>2013-04-14T11:30:47Z</time>
      </trkpt>
      <trkpt lat="44.36867" lon="2.49778">
        <ele>586</ele>
        <time>2013-04-14T11:30:50Z</time>
      </trkpt>
      <trkpt lat="44.36872" lon="2.49774">
        <ele>586</ele>
        <time>2013-04-14T11:30:54Z</time>
      </trkpt>
      <trkpt lat="44.36876" lon="2.49769">
        <ele>587</ele>
        <time>2013-04-14T11:30:58Z</time>
      </trkpt>
      <trkpt lat="44.36879" lon="2.49764">
        <ele>587</ele>
        <time>2013-04-14T11:31:02Z</time>
      </trkpt>
      <trkpt lat="44.36883" lon="2.49758">
        <ele>587</ele>
        <time>2013-04-14T11:31:06Z</time>
      </trkpt>
      <trkpt lat="44.36886" lon="2.49753">
        <ele>587</ele>
        <time>2013-04-14T11:31:10Z</time>
      </trkpt>
      <trkpt lat="44.36888" lon="2.49747">
        <ele>587</ele>
        <time>2013-04-14T11:31:13Z</time>
      </trkpt>
      <trkpt lat="44.36891" lon="2.49743">
        <ele>587</ele>
        <time>2013-04-14T11:31:16Z</time>
      </trkpt>
      <trkpt lat="44.36895" lon="2.49737">
        <ele>587</ele>
        <time>2013-04-14T11:31:20Z</time>
      </trkpt>
      <trkpt lat="44.36898" lon="2.49731">
        <ele>587</ele>
        <time>2013-04-14T11:31:24Z</time>
      </trkpt>
      <trkpt lat="44.369" lon="2.49724">
        <ele>587</ele>
        <time>2013-04-14T11:31:28Z</time>
      </trkpt>
      <trkpt lat="44.36903" lon="2.49717">
        <ele>587</ele>
        <time>2013-04-14T11:31:32Z</time>
      </trkpt>
      <trkpt lat="44.36905" lon="2.4971">
        <ele>587</ele>
        <time>2013-04-14T11:31:36Z</time>
      </trkpt>
      <trkpt lat="44.36907" lon="2.49703">
        <ele>586</ele>
        <time>2013-04-14T11:31:40Z</time>
      </trkpt>
      <trkpt lat="44.36911" lon="2.49691">
        <ele>585</ele>
        <time>2013-04-14T11:31:47Z</time>
      </trkpt>
      <trkpt lat="44.36915" lon="2.49678">
        <ele>584</ele>
        <time>2013-04-14T11:31:55Z</time>
      </trkpt>
      <trkpt lat="44.36918" lon="2.49671">
        <ele>584</ele>
        <time>2013-04-14T11:31:59Z</time>
      </trkpt>
      <trkpt lat="44.36921" lon="2.49666">
        <ele>585</ele>
        <time>2013-04-14T11:32:02Z</time>
      </trkpt>
      <trkpt lat="44.36926" lon="2.49663">
        <ele>585</ele>
        <time>2013-04-14T11:32:06Z</time>
      </trkpt>
      <trkpt lat="44.36931" lon="2.49661">
        <ele>586</ele>
        <time>2013-04-14T11:32:09Z</time>
      </trkpt>
      <trkpt lat="44.36936" lon="2.4966">
        <ele>586</ele>
        <time>2013-04-14T11:32:13Z</time>
      </trkpt>
      <trkpt lat="44.36942" lon="2.4966">
        <ele>586</ele>
        <time>2013-04-14T11:32:17Z</time>
      </trkpt>
      <trkpt lat="44.36949" lon="2.49655">
        <ele>588</ele>
        <time>2013-04-14T11:32:38Z</time>
      </trkpt>
      <trkpt lat="44.36953" lon="2.49649">
        <ele>588</ele>
        <time>2013-04-14T11:32:40Z</time>
      </trkpt>
      <trkpt lat="44.36957" lon="2.49643">
        <ele>588</ele>
        <time>2013-04-14T11:32:43Z</time>
      </trkpt>
      <trkpt lat="44.36962" lon="2.49636">
        <ele>588</ele>
        <time>2013-04-14T11:32:46Z</time>
      </trkpt>
      <trkpt lat="44.36966" lon="2.49632">
        <ele>587</ele>
        <time>2013-04-14T11:32:48Z</time>
      </trkpt>
      <trkpt lat="44.3697" lon="2.49628">
        <ele>587</ele>
        <time>2013-04-14T11:32:50Z</time>
      </trkpt>
      <trkpt lat="44.36975" lon="2.49627">
        <ele>587</ele>
        <time>2013-04-14T11:32:53Z</time>
      </trkpt>
      <trkpt lat="44.3698" lon="2.49626">
        <ele>587</ele>
        <time>2013-04-14T11:32:58Z</time>
      </trkpt>
      <trkpt lat="44.36986" lon="2.49622">
        <ele>587</ele>
        <time>2013-04-14T11:33:01Z</time>
      </trkpt>
      <trkpt lat="44.36991" lon="2.4962">
        <ele>586</ele>
        <time>2013-04-14T11:33:03Z</time>
      </trkpt>
      <trkpt lat="44.36996" lon="2.49617">
        <ele>586</ele>
        <time>2013-04-14T11:33:05Z</time>
      </trkpt>
      <trkpt lat="44.37" lon="2.49615">
        <ele>586</ele>
        <time>2013-04-14T11:33:07Z</time>
      </trkpt>
      <trkpt lat="44.37005" lon="2.49612">
        <ele>586</ele>
        <time>2013-04-14T11:33:09Z</time>
      </trkpt>
      <trkpt lat="44.3701" lon="2.49609">
        <ele>586</ele>
        <time>2013-04-14T11:33:11Z</time>
      </trkpt>
      <trkpt lat="44.37015" lon="2.49606">
        <ele>585</ele>
        <time>2013-04-14T11:33:13Z</time>
      </trkpt>
      <trkpt lat="44.37021" lon="2.49603">
        <ele>585</ele>
        <time>2013-04-14T11:33:15Z</time>
      </trkpt>
      <trkpt lat="44.37026" lon="2.49601">
        <ele>585</ele>
        <time>2013-04-14T11:33:17Z</time>
      </trkpt>
      <trkpt lat="44.37031" lon="2.49598">
        <ele>584</ele>
        <time>2013-04-14T11:33:19Z</time>
      </trkpt>
      <trkpt lat="44.37037" lon="2.49594">
        <ele>584</ele>
        <time>2013-04-14T11:33:21Z</time>
      </trkpt>
      <trkpt lat="44.37042" lon="2.49592">
        <ele>584</ele>
        <time>2013-04-14T11:33:23Z</time>
      </trkpt>
      <trkpt lat="44.37047" lon="2.49589">
        <ele>584</ele>
        <time>2013-04-14T11:33:25Z</time>
      </trkpt>
      <trkpt lat="44.37052" lon="2.49587">
        <ele>584</ele>
        <time>2013-04-14T11:33:27Z</time>
      </trkpt>
      <trkpt lat="44.37059" lon="2.49585">
        <ele>584</ele>
        <time>2013-04-14T11:33:29Z</time>
      </trkpt>
      <trkpt lat="44.37064" lon="2.49582">
        <ele>584</ele>
        <time>2013-04-14T11:33:31Z</time>
      </trkpt>
      <trkpt lat="44.37069" lon="2.4958">
        <ele>583</ele>
        <time>2013-04-14T11:33:33Z</time>
      </trkpt>
      <trkpt lat="44.37074" lon="2.49577">
        <ele>583</ele>
        <time>2013-04-14T11:33:35Z</time>
      </trkpt>
      <trkpt lat="44.3708" lon="2.49573">
        <ele>584</ele>
        <time>2013-04-14T11:33:37Z</time>
      </trkpt>
      <trkpt lat="44.37086" lon="2.4957">
        <ele>584</ele>
        <time>2013-04-14T11:33:39Z</time>
      </trkpt>
      <trkpt lat="44.37092" lon="2.49567">
        <ele>583</ele>
        <time>2013-04-14T11:33:41Z</time>
      </trkpt>
      <trkpt lat="44.37098" lon="2.49564">
        <ele>584</ele>
        <time>2013-04-14T11:33:43Z</time>
      </trkpt>
      <trkpt lat="44.37104" lon="2.49561">
        <ele>583</ele>
        <time>2013-04-14T11:33:45Z</time>
      </trkpt>
      <trkpt lat="44.37109" lon="2.49558">
        <ele>584</ele>
        <time>2013-04-14T11:33:47Z</time>
      </trkpt>
      <trkpt lat="44.37115" lon="2.49555">
        <ele>584</ele>
        <time>2013-04-14T11:33:49Z</time>
      </trkpt>
      <trkpt lat="44.37122" lon="2.4955">
        <ele>584</ele>
        <time>2013-04-14T11:33:52Z</time>
      </trkpt>
      <trkpt lat="44.37128" lon="2.49548">
        <ele>584</ele>
        <time>2013-04-14T11:33:54Z</time>
      </trkpt>
      <trkpt lat="44.37133" lon="2.49545">
        <ele>583</ele>
        <time>2013-04-14T11:33:56Z</time>
      </trkpt>
      <trkpt lat="44.3714" lon="2.49543">
        <ele>583</ele>
        <time>2013-04-14T11:33:58Z</time>
      </trkpt>
      <trkpt lat="44.37146" lon="2.4954">
        <ele>583</ele>
        <time>2013-04-14T11:34:00Z</time>
      </trkpt>
      <trkpt lat="44.37151" lon="2.49537">
        <ele>583</ele>
        <time>2013-04-14T11:34:02Z</time>
      </trkpt>
      <trkpt lat="44.37156" lon="2.49535">
        <ele>583</ele>
        <time>2013-04-14T11:34:04Z</time>
      </trkpt>
      <trkpt lat="44.37162" lon="2.49532">
        <ele>582</ele>
        <time>2013-04-14T11:34:06Z</time>
      </trkpt>
      <trkpt lat="44.37168" lon="2.49529">
        <ele>582</ele>
        <time>2013-04-14T11:34:08Z</time>
      </trkpt>
      <trkpt lat="44.37173" lon="2.49526">
        <ele>582</ele>
        <time>2013-04-14T11:34:10Z</time>
      </trkpt>
      <trkpt lat="44.37178" lon="2.49524">
        <ele>582</ele>
        <time>2013-04-14T11:34:12Z</time>
      </trkpt>
      <trkpt lat="44.37184" lon="2.49521">
        <ele>582</ele>
        <time>2013-04-14T11:34:14Z</time>
      </trkpt>
      <trkpt lat="44.37191" lon="2.49516">
        <ele>582</ele>
        <time>2013-04-14T11:34:16Z</time>
      </trkpt>
      <trkpt lat="44.37196" lon="2.49513">
        <ele>582</ele>
        <time>2013-04-14T11:34:18Z</time>
      </trkpt>
      <trkpt lat="44.37202" lon="2.49511">
        <ele>582</ele>
        <time>2013-04-14T11:34:20Z</time>
      </trkpt>
      <trkpt lat="44.37207" lon="2.49509">
        <ele>582</ele>
        <time>2013-04-14T11:34:22Z</time>
      </trkpt>
      <trkpt lat="44.37212" lon="2.49506">
        <ele>582</ele>
        <time>2013-04-14T11:34:24Z</time>
      </trkpt>
      <trkpt lat="44.37217" lon="2.49504">
        <ele>582</ele>
        <time>2013-04-14T11:34:26Z</time>
      </trkpt>
      <trkpt lat="44.37222" lon="2.49502">
        <ele>582</ele>
        <time>2013-04-14T11:34:28Z</time>
      </trkpt>
      <trkpt lat="44.37226" lon="2.49499">
        <ele>582</ele>
        <time>2013-04-14T11:34:30Z</time>
      </trkpt>
      <trkpt lat="44.37231" lon="2.49496">
        <ele>581</ele>
        <time>2013-04-14T11:34:32Z</time>
      </trkpt>
      <trkpt lat="44.37236" lon="2.49494">
        <ele>581</ele>
        <time>2013-04-14T11:34:34Z</time>
      </trkpt>
      <trkpt lat="44.37241" lon="2.49491">
        <ele>581</ele>
        <time>2013-04-14T11:34:36Z</time>
      </trkpt>
      <trkpt lat="44.37246" lon="2.49489">
        <ele>581</ele>
        <time>2013-04-14T11:34:38Z</time>
      </trkpt>
      <trkpt lat="44.37251" lon="2.49487">
        <ele>581</ele>
        <time>2013-04-14T11:34:40Z</time>
      </trkpt>
      <trkpt lat="44.37256" lon="2.49485">
        <ele>580</ele>
        <time>2013-04-14T11:34:42Z</time>
      </trkpt>
      <trkpt lat="44.37264" lon="2.49481">
        <ele>581</ele>
        <time>2013-04-14T11:34:45Z</time>
      </trkpt>
      <trkpt lat="44.3727" lon="2.49479">
        <ele>580</ele>
        <time>2013-04-14T11:34:47Z</time>
      </trkpt>
      <trkpt lat="44.37275" lon="2.49476">
        <ele>580</ele>
        <time>2013-04-14T11:34:49Z</time>
      </trkpt>
      <trkpt lat="44.3728" lon="2.49474">
        <ele>579</ele>
        <time>2013-04-14T11:34:51Z</time>
      </trkpt>
      <trkpt lat="44.37286" lon="2.4947">
        <ele>579</ele>
        <time>2013-04-14T11:34:53Z</time>
      </trkpt>
      <trkpt lat="44.37291" lon="2.49468">
        <ele>578</ele>
        <time>2013-04-14T11:34:55Z</time>
      </trkpt>
      <trkpt lat="44.37293" lon="2.49468">
        <ele>578</ele>
        <time>2013-04-14T11:35:01Z</time>
      </trkpt>
      <trkpt lat="44.37297" lon="2.4946">
        <ele>583</ele>
        <time>2013-04-14T11:35:16Z</time>
      </trkpt>
      <trkpt lat="44.37302" lon="2.49455">
        <ele>582</ele>
        <time>2013-04-14T11:35:20Z</time>
      </trkpt>
      <trkpt lat="44.37307" lon="2.49452">
        <ele>582</ele>
        <time>2013-04-14T11:35:24Z</time>
      </trkpt>
      <trkpt lat="44.37312" lon="2.49449">
        <ele>582</ele>
        <time>2013-04-14T11:35:28Z</time>
      </trkpt>
      <trkpt lat="44.37318" lon="2.49447">
        <ele>581</ele>
        <time>2013-04-14T11:35:31Z</time>
      </trkpt>
      <trkpt lat="44.37322" lon="2.49445">
        <ele>581</ele>
        <time>2013-04-14T11:35:33Z</time>
      </trkpt>
      <trkpt lat="44.37328" lon="2.49443">
        <ele>581</ele>
        <time>2013-04-14T11:35:35Z</time>
      </trkpt>
      <trkpt lat="44.37332" lon="2.49441">
        <ele>581</ele>
        <time>2013-04-14T11:35:37Z</time>
      </trkpt>
      <trkpt lat="44.37338" lon="2.49438">
        <ele>581</ele>
        <time>2013-04-14T11:35:40Z</time>
      </trkpt>
      <trkpt lat="44.37342" lon="2.49435">
        <ele>580</ele>
        <time>2013-04-14T11:35:42Z</time>
      </trkpt>
      <trkpt lat="44.37347" lon="2.49433">
        <ele>580</ele>
        <time>2013-04-14T11:35:45Z</time>
      </trkpt>
      <trkpt lat="44.37353" lon="2.4943">
        <ele>580</ele>
        <time>2013-04-14T11:35:48Z</time>
      </trkpt>
      <trkpt lat="44.37357" lon="2.49427">
        <ele>580</ele>
        <time>2013-04-14T11:35:50Z</time>
      </trkpt>
      <trkpt lat="44.37362" lon="2.49425">
        <ele>580</ele>
        <time>2013-04-14T11:35:52Z</time>
      </trkpt>
      <trkpt lat="44.37366" lon="2.49422">
        <ele>580</ele>
        <time>2013-04-14T11:35:54Z</time>
      </trkpt>
      <trkpt lat="44.37371" lon="2.4942">
        <ele>580</ele>
        <time>2013-04-14T11:35:56Z</time>
      </trkpt>
      <trkpt lat="44.37376" lon="2.49417">
        <ele>580</ele>
        <time>2013-04-14T11:36:00Z</time>
      </trkpt>
      <trkpt lat="44.37382" lon="2.49415">
        <ele>580</ele>
        <time>2013-04-14T11:36:03Z</time>
      </trkpt>
      <trkpt lat="44.37388" lon="2.49412">
        <ele>580</ele>
        <time>2013-04-14T11:36:07Z</time>
      </trkpt>
      <trkpt lat="44.37393" lon="2.49409">
        <ele>580</ele>
        <time>2013-04-14T11:36:11Z</time>
      </trkpt>
      <trkpt lat="44.37397" lon="2.49405">
        <ele>581</ele>
        <time>2013-04-14T11:36:14Z</time>
      </trkpt>
      <trkpt lat="44.37402" lon="2.49401">
        <ele>581</ele>
        <time>2013-04-14T11:36:18Z</time>
      </trkpt>
      <trkpt lat="44.37407" lon="2.49398">
        <ele>582</ele>
        <time>2013-04-14T11:36:22Z</time>
      </trkpt>
      <trkpt lat="44.37412" lon="2.49396">
        <ele>582</ele>
        <time>2013-04-14T11:36:25Z</time>
      </trkpt>
      <trkpt lat="44.37416" lon="2.49395">
        <ele>582</ele>
        <time>2013-04-14T11:36:28Z</time>
      </trkpt>
      <trkpt lat="44.37422" lon="2.49392">
        <ele>581</ele>
        <time>2013-04-14T11:36:32Z</time>
      </trkpt>
      <trkpt lat="44.37431" lon="2.49388">
        <ele>580</ele>
        <time>2013-04-14T11:36:39Z</time>
      </trkpt>
      <trkpt lat="44.37436" lon="2.49387">
        <ele>581</ele>
        <time>2013-04-14T11:36:44Z</time>
      </trkpt>
      <trkpt lat="44.37442" lon="2.49381">
        <ele>581</ele>
        <time>2013-04-14T11:37:03Z</time>
      </trkpt>
      <trkpt lat="44.37445" lon="2.49375">
        <ele>580</ele>
        <time>2013-04-14T11:37:07Z</time>
      </trkpt>
      <trkpt lat="44.37447" lon="2.49369">
        <ele>580</ele>
        <time>2013-04-14T11:37:11Z</time>
      </trkpt>
      <trkpt lat="44.37448" lon="2.49361">
        <ele>579</ele>
        <time>2013-04-14T11:37:15Z</time>
      </trkpt>
      <trkpt lat="44.37449" lon="2.49355">
        <ele>579</ele>
        <time>2013-04-14T11:37:18Z</time>
      </trkpt>
      <trkpt lat="44.3745" lon="2.49348">
        <ele>578</ele>
        <time>2013-04-14T11:37:21Z</time>
      </trkpt>
      <trkpt lat="44.3745" lon="2.49341">
        <ele>577</ele>
        <time>2013-04-14T11:37:24Z</time>
      </trkpt>
      <trkpt lat="44.37451" lon="2.49335">
        <ele>577</ele>
        <time>2013-04-14T11:37:27Z</time>
      </trkpt>
      <trkpt lat="44.37451" lon="2.49328">
        <ele>576</ele>
        <time>2013-04-14T11:37:30Z</time>
      </trkpt>
      <trkpt lat="44.37451" lon="2.49319">
        <ele>575</ele>
        <time>2013-04-14T11:37:34Z</time>
      </trkpt>
      <trkpt lat="44.37452" lon="2.4931">
        <ele>575</ele>
        <time>2013-04-14T11:37:39Z</time>
      </trkpt>
      <trkpt lat="44.37452" lon="2.49302">
        <ele>575</ele>
        <time>2013-04-14T11:37:43Z</time>
      </trkpt>
      <trkpt lat="44.37453" lon="2.49294">
        <ele>576</ele>
        <time>2013-04-14T11:37:47Z</time>
      </trkpt>
      <trkpt lat="44.37454" lon="2.49287">
        <ele>576</ele>
        <time>2013-04-14T11:37:50Z</time>
      </trkpt>
      <trkpt lat="44.37455" lon="2.4928">
        <ele>575</ele>
        <time>2013-04-14T11:37:54Z</time>
      </trkpt>
      <trkpt lat="44.37455" lon="2.49273">
        <ele>576</ele>
        <time>2013-04-14T11:37:58Z</time>
      </trkpt>
      <trkpt lat="44.37456" lon="2.49265">
        <ele>577</ele>
        <time>2013-04-14T11:38:02Z</time>
      </trkpt>
      <trkpt lat="44.37456" lon="2.49259">
        <ele>578</ele>
        <time>2013-04-14T11:38:05Z</time>
      </trkpt>
      <trkpt lat="44.37457" lon="2.49252">
        <ele>577</ele>
        <time>2013-04-14T11:38:08Z</time>
      </trkpt>
      <trkpt lat="44.3746" lon="2.49245">
        <ele>577</ele>
        <time>2013-04-14T11:38:12Z</time>
      </trkpt>
      <trkpt lat="44.37463" lon="2.4924">
        <ele>577</ele>
        <time>2013-04-14T11:38:15Z</time>
      </trkpt>
      <trkpt lat="44.37469" lon="2.49238">
        <ele>577</ele>
        <time>2013-04-14T11:38:19Z</time>
      </trkpt>
      <trkpt lat="44.37474" lon="2.49237">
        <ele>576</ele>
        <time>2013-04-14T11:38:22Z</time>
      </trkpt>
      <trkpt lat="44.3748" lon="2.49237">
        <ele>576</ele>
        <time>2013-04-14T11:38:26Z</time>
      </trkpt>
      <trkpt lat="44.37486" lon="2.49237">
        <ele>575</ele>
        <time>2013-04-14T11:38:30Z</time>
      </trkpt>
      <trkpt lat="44.37491" lon="2.49236">
        <ele>575</ele>
        <time>2013-04-14T11:38:33Z</time>
      </trkpt>
      <trkpt lat="44.37497" lon="2.49235">
        <ele>575</ele>
        <time>2013-04-14T11:38:37Z</time>
      </trkpt>
      <trkpt lat="44.37502" lon="2.49234">
        <ele>575</ele>
        <time>2013-04-14T11:38:41Z</time>
      </trkpt>
      <trkpt lat="44.37509" lon="2.49233">
        <ele>574</ele>
        <time>2013-04-14T11:38:46Z</time>
      </trkpt>
      <trkpt lat="44.37515" lon="2.49233">
        <ele>574</ele>
        <time>2013-04-14T11:38:50Z</time>
      </trkpt>
      <trkpt lat="44.3752" lon="2.49232">
        <ele>574</ele>
        <time>2013-04-14T11:38:53Z</time>
      </trkpt>
      <trkpt lat="44.37525" lon="2.49231">
        <ele>574</ele>
        <time>2013-04-14T11:38:57Z</time>
      </trkpt>
      <trkpt lat="44.37531" lon="2.49232">
        <ele>573</ele>
        <time>2013-04-14T11:39:01Z</time>
      </trkpt>
      <trkpt lat="44.37537" lon="2.49235">
        <ele>573</ele>
        <time>2013-04-14T11:39:05Z</time>
      </trkpt>
      <trkpt lat="44.37542" lon="2.49235">
        <ele>574</ele>
        <time>2013-04-14T11:39:09Z</time>
      </trkpt>
      <trkpt lat="44.37547" lon="2.49233">
        <ele>574</ele>
        <time>2013-04-14T11:39:12Z</time>
      </trkpt>
      <trkpt lat="44.37552" lon="2.49232">
        <ele>574</ele>
        <time>2013-04-14T11:39:15Z</time>
      </trkpt>
      <trkpt lat="44.37557" lon="2.49231">
        <ele>574</ele>
        <time>2013-04-14T11:39:19Z</time>
      </trkpt>
      <trkpt lat="44.37562" lon="2.49232">
        <ele>573</ele>
        <time>2013-04-14T11:39:23Z</time>
      </trkpt>
      <trkpt lat="44.37567" lon="2.49231">
        <ele>573</ele>
        <time>2013-04-14T11:39:27Z</time>
      </trkpt>
      <trkpt lat="44.37573" lon="2.49231">
        <ele>572</ele>
        <time>2013-04-14T11:39:31Z</time>
      </trkpt>
      <trkpt lat="44.37578" lon="2.49232">
        <ele>572</ele>
        <time>2013-04-14T11:39:34Z</time>
      </trkpt>
      <trkpt lat="44.37582" lon="2.49232">
        <ele>572</ele>
        <time>2013-04-14T11:39:37Z</time>
      </trkpt>
      <trkpt lat="44.37587" lon="2.49232">
        <ele>571</ele>
        <time>2013-04-14T11:39:40Z</time>
      </trkpt>
      <trkpt lat="44.37594" lon="2.49231">
        <ele>571</ele>
        <time>2013-04-14T11:39:46Z</time>
      </trkpt>
      <trkpt lat="44.37602" lon="2.49229">
        <ele>572</ele>
        <time>2013-04-14T11:40:19Z</time>
      </trkpt>
      <trkpt lat="44.37607" lon="2.49227">
        <ele>573</ele>
        <time>2013-04-14T11:40:22Z</time>
      </trkpt>
      <trkpt lat="44.37612" lon="2.49226">
        <ele>573</ele>
        <time>2013-04-14T11:40:26Z</time>
      </trkpt>
      <trkpt lat="44.37618" lon="2.49226">
        <ele>573</ele>
        <time>2013-04-14T11:40:30Z</time>
      </trkpt>
      <trkpt lat="44.37623" lon="2.49226">
        <ele>573</ele>
        <time>2013-04-14T11:40:34Z</time>
      </trkpt>
      <trkpt lat="44.37628" lon="2.49226">
        <ele>574</ele>
        <time>2013-04-14T11:40:37Z</time>
      </trkpt>
      <trkpt lat="44.37633" lon="2.49225">
        <ele>574</ele>
        <time>2013-04-14T11:40:41Z</time>
      </trkpt>
      <trkpt lat="44.37639" lon="2.49222">
        <ele>575</ele>
        <time>2013-04-14T11:40:45Z</time>
      </trkpt>
      <trkpt lat="44.37644" lon="2.4922">
        <ele>575</ele>
        <time>2013-04-14T11:40:49Z</time>
      </trkpt>
      <trkpt lat="44.37649" lon="2.49217">
        <ele>576</ele>
        <time>2013-04-14T11:40:53Z</time>
      </trkpt>
      <trkpt lat="44.37654" lon="2.49215">
        <ele>576</ele>
        <time>2013-04-14T11:40:57Z</time>
      </trkpt>
      <trkpt lat="44.37659" lon="2.49213">
        <ele>576</ele>
        <time>2013-04-14T11:41:01Z</time>
      </trkpt>
      <trkpt lat="44.37664" lon="2.49209">
        <ele>576</ele>
        <time>2013-04-14T11:41:05Z</time>
      </trkpt>
      <trkpt lat="44.37668" lon="2.49205">
        <ele>576</ele>
        <time>2013-04-14T11:41:09Z</time>
      </trkpt>
      <trkpt lat="44.37673" lon="2.49201">
        <ele>576</ele>
        <time>2013-04-14T11:41:13Z</time>
      </trkpt>
      <trkpt lat="44.37678" lon="2.49197">
        <ele>576</ele>
        <time>2013-04-14T11:41:17Z</time>
      </trkpt>
      <trkpt lat="44.37682" lon="2.49193">
        <ele>577</ele>
        <time>2013-04-14T11:41:21Z</time>
      </trkpt>
      <trkpt lat="44.37686" lon="2.49189">
        <ele>577</ele>
        <time>2013-04-14T11:41:24Z</time>
      </trkpt>
      <trkpt lat="44.3769" lon="2.49186">
        <ele>577</ele>
        <time>2013-04-14T11:41:27Z</time>
      </trkpt>
      <trkpt lat="44.37695" lon="2.49182">
        <ele>577</ele>
        <time>2013-04-14T11:41:31Z</time>
      </trkpt>
      <trkpt lat="44.37699" lon="2.49179">
        <ele>577</ele>
        <time>2013-04-14T11:41:34Z</time>
      </trkpt>
      <trkpt lat="44.37703" lon="2.49176">
        <ele>577</ele>
        <time>2013-04-14T11:41:37Z</time>
      </trkpt>
      <trkpt lat="44.37708" lon="2.49173">
        <ele>576</ele>
        <time>2013-04-14T11:41:41Z</time>
      </trkpt>
      <trkpt lat="44.37712" lon="2.4917">
        <ele>576</ele>
        <time>2013-04-14T11:41:46Z</time>
      </trkpt>
      <trkpt lat="44.37716" lon="2.49166">
        <ele>575</ele>
        <time>2013-04-14T11:41:50Z</time>
      </trkpt>
      <trkpt lat="44.3772" lon="2.49161">
        <ele>576</ele>
        <time>2013-04-14T11:41:54Z</time>
      </trkpt>
      <trkpt lat="44.37725" lon="2.49157">
        <ele>577</ele>
        <time>2013-04-14T11:41:58Z</time>
      </trkpt>
      <trkpt lat="44.37729" lon="2.49152">
        <ele>577</ele>
        <time>2013-04-14T11:42:03Z</time>
      </trkpt>
      <trkpt lat="44.37733" lon="2.49148">
        <ele>578</ele>
        <time>2013-04-14T11:42:07Z</time>
      </trkpt>
      <trkpt lat="44.37737" lon="2.49144">
        <ele>578</ele>
        <time>2013-04-14T11:42:11Z</time>
      </trkpt>
      <trkpt lat="44.37741" lon="2.49139">
        <ele>578</ele>
        <time>2013-04-14T11:42:15Z</time>
      </trkpt>
      <trkpt lat="44.37746" lon="2.49136">
        <ele>578</ele>
        <time>2013-04-14T11:42:19Z</time>
      </trkpt>
      <trkpt lat="44.3775" lon="2.49132">
        <ele>578</ele>
        <time>2013-04-14T11:42:23Z</time>
      </trkpt>
      <trkpt lat="44.37754" lon="2.49129">
        <ele>579</ele>
        <time>2013-04-14T11:42:48Z</time>
      </trkpt>
      <trkpt lat="44.37759" lon="2.49125">
        <ele>579</ele>
        <time>2013-04-14T11:42:55Z</time>
      </trkpt>
      <trkpt lat="44.37763" lon="2.49121">
        <ele>579</ele>
        <time>2013-04-14T11:42:59Z</time>
      </trkpt>
      <trkpt lat="44.37767" lon="2.49117">
        <ele>579</ele>
        <time>2013-04-14T11:43:03Z</time>
      </trkpt>
      <trkpt lat="44.37772" lon="2.49115">
        <ele>578</ele>
        <time>2013-04-14T11:43:11Z</time>
      </trkpt>
      <trkpt lat="44.37777" lon="2.49108">
        <ele>578</ele>
        <time>2013-04-14T11:43:27Z</time>
      </trkpt>
      <trkpt lat="44.37787" lon="2.49102">
        <ele>578</ele>
        <time>2013-04-14T11:44:03Z</time>
      </trkpt>
      <trkpt lat="44.37792" lon="2.49098">
        <ele>579</ele>
        <time>2013-04-14T11:44:08Z</time>
      </trkpt>
      <trkpt lat="44.37796" lon="2.49095">
        <ele>579</ele>
        <time>2013-04-14T11:44:11Z</time>
      </trkpt>
      <trkpt lat="44.37801" lon="2.4909">
        <ele>579</ele>
        <time>2013-04-14T11:44:15Z</time>
      </trkpt>
      <trkpt lat="44.37805" lon="2.49086">
        <ele>579</ele>
        <time>2013-04-14T11:44:18Z</time>
      </trkpt>
      <trkpt lat="44.37809" lon="2.49083">
        <ele>579</ele>
        <time>2013-04-14T11:44:22Z</time>
      </trkpt>
      <trkpt lat="44.37814" lon="2.49078">
        <ele>580</ele>
        <time>2013-04-14T11:44:27Z</time>
      </trkpt>
      <trkpt lat="44.37818" lon="2.49074">
        <ele>581</ele>
        <time>2013-04-14T11:44:30Z</time>
      </trkpt>
      <trkpt lat="44.37822" lon="2.4907">
        <ele>580</ele>
        <time>2013-04-14T11:44:34Z</time>
      </trkpt>
      <trkpt lat="44.37826" lon="2.49066">
        <ele>580</ele>
        <time>2013-04-14T11:44:38Z</time>
      </trkpt>
      <trkpt lat="44.3783" lon="2.49061">
        <ele>582</ele>
        <time>2013-04-14T11:44:42Z</time>
      </trkpt>
      <trkpt lat="44.37835" lon="2.49056">
        <ele>582</ele>
        <time>2013-04-14T11:44:46Z</time>
      </trkpt>
      <trkpt lat="44.3784" lon="2.49052">
        <ele>583</ele>
        <time>2013-04-14T11:44:50Z</time>
      </trkpt>
      <trkpt lat="44.37844" lon="2.49049">
        <ele>583</ele>
        <time>2013-04-14T11:44:53Z</time>
      </trkpt>
      <trkpt lat="44.37849" lon="2.49046">
        <ele>583</ele>
        <time>2013-04-14T11:44:57Z</time>
      </trkpt>
      <trkpt lat="44.37853" lon="2.49042">
        <ele>584</ele>
        <time>2013-04-14T11:45:01Z</time>
      </trkpt>
      <trkpt lat="44.37858" lon="2.49039">
        <ele>584</ele>
        <time>2013-04-14T11:45:05Z</time>
      </trkpt>
      <trkpt lat="44.37863" lon="2.49036">
        <ele>584</ele>
        <time>2013-04-14T11:45:09Z</time>
      </trkpt>
      <trkpt lat="44.37866" lon="2.49033">
        <ele>584</ele>
        <time>2013-04-14T11:45:18Z</time>
      </trkpt>
      <trkpt lat="44.37872" lon="2.49032">
        <ele>584</ele>
        <time>2013-04-14T11:45:27Z</time>
      </trkpt>
      <trkpt lat="44.37876" lon="2.49029">
        <ele>583</ele>
        <time>2013-04-14T11:45:30Z</time>
      </trkpt>
      <trkpt lat="44.3788" lon="2.49026">
        <ele>584</ele>
        <time>2013-04-14T11:45:33Z</time>
      </trkpt>
      <trkpt lat="44.37885" lon="2.49021">
        <ele>584</ele>
        <time>2013-04-14T11:45:37Z</time>
      </trkpt>
      <trkpt lat="44.37888" lon="2.49016">
        <ele>585</ele>
        <time>2013-04-14T11:45:41Z</time>
      </trkpt>
      <trkpt lat="44.37892" lon="2.49012">
        <ele>585</ele>
        <time>2013-04-14T11:45:45Z</time>
      </trkpt>
      <trkpt lat="44.37896" lon="2.49006">
        <ele>585</ele>
        <time>2013-04-14T11:45:49Z</time>
      </trkpt>
      <trkpt lat="44.379" lon="2.49001">
        <ele>585</ele>
        <time>2013-04-14T11:45:53Z</time>
      </trkpt>
      <trkpt lat="44.37904" lon="2.48996">
        <ele>585</ele>
        <time>2013-04-14T11:45:57Z</time>
      </trkpt>
      <trkpt lat="44.37908" lon="2.48991">
        <ele>584</ele>
        <time>2013-04-14T11:46:01Z</time>
      </trkpt>
      <trkpt lat="44.37913" lon="2.48986">
        <ele>584</ele>
        <time>2013-04-14T11:46:05Z</time>
      </trkpt>
      <trkpt lat="44.37917" lon="2.48981">
        <ele>585</ele>
        <time>2013-04-14T11:46:09Z</time>
      </trkpt>
      <trkpt lat="44.3792" lon="2.48975">
        <ele>585</ele>
        <time>2013-04-14T11:46:13Z</time>
      </trkpt>
      <trkpt lat="44.37925" lon="2.4897">
        <ele>585</ele>
        <time>2013-04-14T11:46:17Z</time>
      </trkpt>
      <trkpt lat="44.37928" lon="2.48965">
        <ele>585</ele>
        <time>2013-04-14T11:46:21Z</time>
      </trkpt>
      <trkpt lat="44.37932" lon="2.4896">
        <ele>585</ele>
        <time>2013-04-14T11:46:24Z</time>
      </trkpt>
      <trkpt lat="44.37934" lon="2.48954">
        <ele>585</ele>
        <time>2013-04-14T11:46:27Z</time>
      </trkpt>
      <trkpt lat="44.37936" lon="2.48948">
        <ele>585</ele>
        <time>2013-04-14T11:46:31Z</time>
      </trkpt>
      <trkpt lat="44.3794" lon="2.48935">
        <ele>585</ele>
        <time>2013-04-14T11:46:38Z</time>
      </trkpt>
      <trkpt lat="44.37941" lon="2.48927">
        <ele>586</ele>
        <time>2013-04-14T11:46:42Z</time>
      </trkpt>
      <trkpt lat="44.37943" lon="2.48921">
        <ele>586</ele>
        <time>2013-04-14T11:46:45Z</time>
      </trkpt>
      <trkpt lat="44.37946" lon="2.48914">
        <ele>586</ele>
        <time>2013-04-14T11:46:49Z</time>
      </trkpt>
      <trkpt lat="44.37948" lon="2.48907">
        <ele>586</ele>
        <time>2013-04-14T11:46:53Z</time>
      </trkpt>
      <trkpt lat="44.37949" lon="2.489">
        <ele>586</ele>
        <time>2013-04-14T11:46:57Z</time>
      </trkpt>
      <trkpt lat="44.37951" lon="2.48893">
        <ele>587</ele>
        <time>2013-04-14T11:47:00Z</time>
      </trkpt>
      <trkpt lat="44.37954" lon="2.48886">
        <ele>587</ele>
        <time>2013-04-14T11:47:04Z</time>
      </trkpt>
      <trkpt lat="44.37958" lon="2.48878">
        <ele>586</ele>
        <time>2013-04-14T11:47:09Z</time>
      </trkpt>
      <trkpt lat="44.3796" lon="2.48871">
        <ele>586</ele>
        <time>2013-04-14T11:47:13Z</time>
      </trkpt>
      <trkpt lat="44.37962" lon="2.48863">
        <ele>586</ele>
        <time>2013-04-14T11:47:17Z</time>
      </trkpt>
      <trkpt lat="44.37964" lon="2.48856">
        <ele>587</ele>
        <time>2013-04-14T11:47:21Z</time>
      </trkpt>
      <trkpt lat="44.37966" lon="2.4885">
        <ele>587</ele>
        <time>2013-04-14T11:47:24Z</time>
      </trkpt>
      <trkpt lat="44.37968" lon="2.48844">
        <ele>587</ele>
        <time>2013-04-14T11:47:27Z</time>
      </trkpt>
      <trkpt lat="44.3797" lon="2.48836">
        <ele>587</ele>
        <time>2013-04-14T11:47:31Z</time>
      </trkpt>
      <trkpt lat="44.37972" lon="2.4883">
        <ele>587</ele>
        <time>2013-04-14T11:47:35Z</time>
      </trkpt>
      <trkpt lat="44.37974" lon="2.48824">
        <ele>587</ele>
        <time>2013-04-14T11:47:39Z</time>
      </trkpt>
      <trkpt lat="44.37976" lon="2.48818">
        <ele>588</ele>
        <time>2013-04-14T11:47:42Z</time>
      </trkpt>
      <trkpt lat="44.37978" lon="2.48812">
        <ele>587</ele>
        <time>2013-04-14T11:47:45Z</time>
      </trkpt>
      <trkpt lat="44.3798" lon="2.48804">
        <ele>587</ele>
        <time>2013-04-14T11:47:49Z</time>
      </trkpt>
      <trkpt lat="44.37983" lon="2.48797">
        <ele>587</ele>
        <time>2013-04-14T11:47:53Z</time>
      </trkpt>
      <trkpt lat="44.37985" lon="2.4879">
        <ele>587</ele>
        <time>2013-04-14T11:47:57Z</time>
      </trkpt>
      <trkpt lat="44.37989" lon="2.48778">
        <ele>586</ele>
        <time>2013-04-14T11:48:04Z</time>
      </trkpt>
      <trkpt lat="44.37991" lon="2.48771">
        <ele>587</ele>
        <time>2013-04-14T11:48:08Z</time>
      </trkpt>
      <trkpt lat="44.37994" lon="2.4876">
        <ele>588</ele>
        <time>2013-04-14T11:48:14Z</time>
      </trkpt>
      <trkpt lat="44.37995" lon="2.48753">
        <ele>588</ele>
        <time>2013-04-14T11:48:18Z</time>
      </trkpt>
      <trkpt lat="44.37998" lon="2.48745">
        <ele>589</ele>
        <time>2013-04-14T11:48:22Z</time>
      </trkpt>
      <trkpt lat="44.38001" lon="2.48732">
        <ele>590</ele>
        <time>2013-04-14T11:48:30Z</time>
      </trkpt>
      <trkpt lat="44.38002" lon="2.48724">
        <ele>590</ele>
        <time>2013-04-14T11:48:34Z</time>
      </trkpt>
      <trkpt lat="44.38005" lon="2.48715">
        <ele>591</ele>
        <time>2013-04-14T11:48:39Z</time>
      </trkpt>
      <trkpt lat="44.38006" lon="2.48708">
        <ele>591</ele>
        <time>2013-04-14T11:48:43Z</time>
      </trkpt>
      <trkpt lat="44.38009" lon="2.48701">
        <ele>591</ele>
        <time>2013-04-14T11:48:47Z</time>
      </trkpt>
      <trkpt lat="44.38012" lon="2.48696">
        <ele>591</ele>
        <time>2013-04-14T11:48:50Z</time>
      </trkpt>
      <trkpt lat="44.38015" lon="2.48689">
        <ele>591</ele>
        <time>2013-04-14T11:48:54Z</time>
      </trkpt>
      <trkpt lat="44.38018" lon="2.48683">
        <ele>590</ele>
        <time>2013-04-14T11:48:58Z</time>
      </trkpt>
      <trkpt lat="44.38021" lon="2.48677">
        <ele>590</ele>
        <time>2013-04-14T11:49:02Z</time>
      </trkpt>
      <trkpt lat="44.38024" lon="2.48671">
        <ele>590</ele>
        <time>2013-04-14T11:49:05Z</time>
      </trkpt>
      <trkpt lat="44.38027" lon="2.48665">
        <ele>589</ele>
        <time>2013-04-14T11:49:09Z</time>
      </trkpt>
      <trkpt lat="44.38031" lon="2.48659">
        <ele>589</ele>
        <time>2013-04-14T11:49:13Z</time>
      </trkpt>
      <trkpt lat="44.38035" lon="2.48653">
        <ele>589</ele>
        <time>2013-04-14T11:49:17Z</time>
      </trkpt>
      <trkpt lat="44.38039" lon="2.48647">
        <ele>589</ele>
        <time>2013-04-14T11:49:21Z</time>
      </trkpt>
      <trkpt lat="44.38042" lon="2.48641">
        <ele>589</ele>
        <time>2013-04-14T11:49:25Z</time>
      </trkpt>
      <trkpt lat="44.38046" lon="2.48635">
        <ele>590</ele>
        <time>2013-04-14T11:49:29Z</time>
      </trkpt>
      <trkpt lat="44.38049" lon="2.4863">
        <ele>590</ele>
        <time>2013-04-14T11:49:32Z</time>
      </trkpt>
      <trkpt lat="44.38052" lon="2.48624">
        <ele>590</ele>
        <time>2013-04-14T11:49:36Z</time>
      </trkpt>
      <trkpt lat="44.38057" lon="2.48619">
        <ele>589</ele>
        <time>2013-04-14T11:49:40Z</time>
      </trkpt>
      <trkpt lat="44.3806" lon="2.48614">
        <ele>589</ele>
        <time>2013-04-14T11:49:44Z</time>
      </trkpt>
      <trkpt lat="44.38064" lon="2.48607">
        <ele>590</ele>
        <time>2013-04-14T11:49:48Z</time>
      </trkpt>
      <trkpt lat="44.38068" lon="2.48603">
        <ele>590</ele>
        <time>2013-04-14T11:49:52Z</time>
      </trkpt>
      <trkpt lat="44.38071" lon="2.48597">
        <ele>590</ele>
        <time>2013-04-14T11:49:55Z</time>
      </trkpt>
      <trkpt lat="44.38074" lon="2.48592">
        <ele>591</ele>
        <time>2013-04-14T11:49:59Z</time>
      </trkpt>
      <trkpt lat="44.38077" lon="2.48586">
        <ele>591</ele>
        <time>2013-04-14T11:50:03Z</time>
      </trkpt>
      <trkpt lat="44.38081" lon="2.4858">
        <ele>591</ele>
        <time>2013-04-14T11:50:07Z</time>
      </trkpt>
      <trkpt lat="44.38085" lon="2.48575">
        <ele>591</ele>
        <time>2013-04-14T11:50:10Z</time>
      </trkpt>
      <trkpt lat="44.38088" lon="2.4857">
        <ele>590</ele>
        <time>2013-04-14T11:50:13Z</time>
      </trkpt>
      <trkpt lat="44.38091" lon="2.48566">
        <ele>590</ele>
        <time>2013-04-14T11:50:17Z</time>
      </trkpt>
      <trkpt lat="44.38096" lon="2.48562">
        <ele>590</ele>
        <time>2013-04-14T11:50:21Z</time>
      </trkpt>
      <trkpt lat="44.38099" lon="2.48557">
        <ele>590</ele>
        <time>2013-04-14T11:50:24Z</time>
      </trkpt>
      <trkpt lat="44.38102" lon="2.48551">
        <ele>590</ele>
        <time>2013-04-14T11:50:28Z</time>
      </trkpt>
      <trkpt lat="44.38106" lon="2.48546">
        <ele>590</ele>
        <time>2013-04-14T11:50:31Z</time>
      </trkpt>
      <trkpt lat="44.3811" lon="2.48542">
        <ele>590</ele>
        <time>2013-04-14T11:50:35Z</time>
      </trkpt>
      <trkpt lat="44.38114" lon="2.48537">
        <ele>590</ele>
        <time>2013-04-14T11:50:39Z</time>
      </trkpt>
      <trkpt lat="44.38119" lon="2.48532">
        <ele>590</ele>
        <time>2013-04-14T11:50:43Z</time>
      </trkpt>
      <trkpt lat="44.38124" lon="2.48528">
        <ele>590</ele>
        <time>2013-04-14T11:50:47Z</time>
      </trkpt>
      <trkpt lat="44.38128" lon="2.48523">
        <ele>589</ele>
        <time>2013-04-14T11:50:51Z</time>
      </trkpt>
      <trkpt lat="44.38133" lon="2.48518">
        <ele>589</ele>
        <time>2013-04-14T11:50:55Z</time>
      </trkpt>
      <trkpt lat="44.38137" lon="2.48513">
        <ele>588</ele>
        <time>2013-04-14T11:50:59Z</time>
      </trkpt>
      <trkpt lat="44.38141" lon="2.48507">
        <ele>588</ele>
        <time>2013-04-14T11:51:03Z</time>
      </trkpt>
      <trkpt lat="44.38143" lon="2.485">
        <ele>588</ele>
        <time>2013-04-14T11:51:07Z</time>
      </trkpt>
      <trkpt lat="44.38147" lon="2.48496">
        <ele>588</ele>
        <time>2013-04-14T11:51:10Z</time>
      </trkpt>
      <trkpt lat="44.38152" lon="2.48493">
        <ele>587</ele>
        <time>2013-04-14T11:51:13Z</time>
      </trkpt>
      <trkpt lat="44.38156" lon="2.48488">
        <ele>586</ele>
        <time>2013-04-14T11:51:17Z</time>
      </trkpt>
      <trkpt lat="44.3816" lon="2.48482">
        <ele>586</ele>
        <time>2013-04-14T11:51:21Z</time>
      </trkpt>
      <trkpt lat="44.38162" lon="2.48472">
        <ele>585</ele>
        <time>2013-04-14T11:51:26Z</time>
      </trkpt>
      <trkpt lat="44.38164" lon="2.48466">
        <ele>586</ele>
        <time>2013-04-14T11:51:30Z</time>
      </trkpt>
      <trkpt lat="44.38167" lon="2.4846">
        <ele>586</ele>
        <time>2013-04-14T11:51:34Z</time>
      </trkpt>
      <trkpt lat="44.38171" lon="2.48464">
        <ele>585</ele>
        <time>2013-04-14T11:51:38Z</time>
      </trkpt>
      <trkpt lat="44.38169" lon="2.48471">
        <ele>585</ele>
        <time>2013-04-14T11:51:42Z</time>
      </trkpt>
      <trkpt lat="44.38169" lon="2.4848">
        <ele>585</ele>
        <time>2013-04-14T11:52:05Z</time>
      </trkpt>
      <trkpt lat="44.38171" lon="2.48486">
        <ele>586</ele>
        <time>2013-04-14T11:52:10Z</time>
      </trkpt>
      <trkpt lat="44.38172" lon="2.4849">
        <ele>585</ele>
        <time>2013-04-14T12:01:10Z</time>
      </trkpt>
      <trkpt lat="44.38167" lon="2.48492">
        <ele>584</ele>
        <time>2013-04-14T12:06:16Z</time>
      </trkpt>
      <trkpt lat="44.38169" lon="2.48486">
        <ele>584</ele>
        <time>2013-04-14T12:11:47Z</time>
      </trkpt>
      <trkpt lat="44.3817" lon="2.48484">
        <ele>585</ele>
        <time>2013-04-14T12:16:19Z</time>
      </trkpt>
      <trkpt lat="44.38166" lon="2.48478">
        <ele>585</ele>
        <time>2013-04-14T12:17:27Z</time>
      </trkpt>
      <trkpt lat="44.38168" lon="2.4847">
        <ele>585</ele>
        <time>2013-04-14T12:17:31Z</time>
      </trkpt>
      <trkpt lat="44.3817" lon="2.48463">
        <ele>585</ele>
        <time>2013-04-14T12:17:35Z</time>
      </trkpt>
      <trkpt lat="44.38172" lon="2.48456">
        <ele>584</ele>
        <time>2013-04-14T12:17:39Z</time>
      </trkpt>
      <trkpt lat="44.38174" lon="2.48449">
        <ele>584</ele>
        <time>2013-04-14T12:17:42Z</time>
      </trkpt>
      <trkpt lat="44.38177" lon="2.48444">
        <ele>584</ele>
        <time>2013-04-14T12:17:46Z</time>
      </trkpt>
      <trkpt lat="44.3818" lon="2.48438">
        <ele>583</ele>
        <time>2013-04-14T12:17:50Z</time>
      </trkpt>
      <trkpt lat="44.38184" lon="2.48433">
        <ele>582</ele>
        <time>2013-04-14T12:17:54Z</time>
      </trkpt>
      <trkpt lat="44.38186" lon="2.48427">
        <ele>582</ele>
        <time>2013-04-14T12:17:57Z</time>
      </trkpt>
      <trkpt lat="44.38189" lon="2.48421">
        <ele>582</ele>
        <time>2013-04-14T12:18:01Z</time>
      </trkpt>
      <trkpt lat="44.38192" lon="2.48415">
        <ele>583</ele>
        <time>2013-04-14T12:18:05Z</time>
      </trkpt>
      <trkpt lat="44.38195" lon="2.48409">
        <ele>583</ele>
        <time>2013-04-14T12:18:09Z</time>
      </trkpt>
      <trkpt lat="44.38197" lon="2.48395">
        <ele>583</ele>
        <time>2013-04-14T12:18:18Z</time>
      </trkpt>
      <trkpt lat="44.38197" lon="2.48384">
        <ele>582</ele>
        <time>2013-04-14T12:18:24Z</time>
      </trkpt>
      <trkpt lat="44.38195" lon="2.48377">
        <ele>582</ele>
        <time>2013-04-14T12:18:28Z</time>
      </trkpt>
      <trkpt lat="44.38195" lon="2.4837">
        <ele>581</ele>
        <time>2013-04-14T12:18:31Z</time>
      </trkpt>
      <trkpt lat="44.38191" lon="2.48357">
        <ele>580</ele>
        <time>2013-04-14T12:18:39Z</time>
      </trkpt>
      <trkpt lat="44.38186" lon="2.48352">
        <ele>580</ele>
        <time>2013-04-14T12:18:42Z</time>
      </trkpt>
      <trkpt lat="44.38179" lon="2.48348">
        <ele>580</ele>
        <time>2013-04-14T12:18:46Z</time>
      </trkpt>
      <trkpt lat="44.3817" lon="2.48344">
        <ele>581</ele>
        <time>2013-04-14T12:18:52Z</time>
      </trkpt>
      <trkpt lat="44.38164" lon="2.48341">
        <ele>581</ele>
        <time>2013-04-14T12:18:56Z</time>
      </trkpt>
      <trkpt lat="44.3816" lon="2.48334">
        <ele>581</ele>
        <time>2013-04-14T12:19:00Z</time>
      </trkpt>
      <trkpt lat="44.38154" lon="2.48325">
        <ele>582</ele>
        <time>2013-04-14T12:19:08Z</time>
      </trkpt>
      <trkpt lat="44.3815" lon="2.48329">
        <ele>582</ele>
        <time>2013-04-14T12:22:28Z</time>
      </trkpt>
      <trkpt lat="44.38137" lon="2.48322">
        <ele>582</ele>
        <time>2013-04-14T12:22:55Z</time>
      </trkpt>
      <trkpt lat="44.38127" lon="2.48313">
        <ele>581</ele>
        <time>2013-04-14T12:23:06Z</time>
      </trkpt>
      <trkpt lat="44.3812" lon="2.48302">
        <ele>580</ele>
        <time>2013-04-14T12:23:11Z</time>
      </trkpt>
      <trkpt lat="44.38114" lon="2.48292">
        <ele>578</ele>
        <time>2013-04-14T12:23:16Z</time>
      </trkpt>
      <trkpt lat="44.38105" lon="2.48289">
        <ele>578</ele>
        <time>2013-04-14T12:23:21Z</time>
      </trkpt>
      <trkpt lat="44.38101" lon="2.48282">
        <ele>581</ele>
        <time>2013-04-14T12:24:44Z</time>
      </trkpt>
      <trkpt lat="44.38102" lon="2.48282">
        <ele>579</ele>
        <time>2013-04-14T12:25:21Z</time>
      </trkpt>
    </trkseg>
  </trk>
</gpx>